<?xml version="1.0" encoding="UTF-8" standalone="no" ?>
<gpx xmlns="http://www.topografix.com/GPX/1/1" xmlns:xsi="http://www.w3.org/2001/XMLSchema-instance" xsi:schemaLocation="http://www.topografix.com/GPX/1/1 http://www.topografix.com/GPX/1/1/gpx.xsd" version="1.1" creator="VisuGPX - https://www.visugpx.com">
  <metadata>
    <name>COL DE L\'EVEQUE</name>
    <desc><![CDATA[CIRCUIT A DEPART DU COL DE L\'EVEQUE DANS L\'ESTEREL]]></desc>
  </metadata>
  <trk>
    <name><![CDATA[BAISSE DES SANGLIERS ]]></name>
    <cmt><![CDATA[07/05/2015]]></cmt>
    <desc><![CDATA[comment ...]]></desc>
    <trkseg>
      <trkpt lat="43.46155" lon="6.90631">
        <ele>141</ele>
        <time>2015-05-07T14:35:46 +0200</time>
      </trkpt>
      <trkpt lat="43.46155" lon="6.90636">
        <ele>147</ele>
        <time>2015-05-07T14:36:21 +0200</time>
      </trkpt>
      <trkpt lat="43.46157" lon="6.90643">
        <ele>147</ele>
        <time>2015-05-07T14:40:43 +0200</time>
      </trkpt>
      <trkpt lat="43.46158" lon="6.9064">
        <ele>149</ele>
        <time>2015-05-07T14:40:50 +0200</time>
      </trkpt>
      <trkpt lat="43.46159" lon="6.90637">
        <ele>150</ele>
        <time>2015-05-07T14:40:55 +0200</time>
      </trkpt>
      <trkpt lat="43.46161" lon="6.90635">
        <ele>152</ele>
        <time>2015-05-07T14:40:57 +0200</time>
      </trkpt>
      <trkpt lat="43.46162" lon="6.90631">
        <ele>154</ele>
        <time>2015-05-07T14:41:03 +0200</time>
      </trkpt>
      <trkpt lat="43.46162" lon="6.90619">
        <ele>157</ele>
        <time>2015-05-07T14:41:15 +0200</time>
      </trkpt>
      <trkpt lat="43.46166" lon="6.90609">
        <ele>157</ele>
        <time>2015-05-07T14:41:24 +0200</time>
      </trkpt>
      <trkpt lat="43.46167" lon="6.90609">
        <ele>157</ele>
        <time>2015-05-07T14:41:25 +0200</time>
      </trkpt>
      <trkpt lat="43.46171" lon="6.90602">
        <ele>157</ele>
        <time>2015-05-07T14:41:28 +0200</time>
      </trkpt>
      <trkpt lat="43.46179" lon="6.90583">
        <ele>154</ele>
        <time>2015-05-07T14:41:42 +0200</time>
      </trkpt>
      <trkpt lat="43.46181" lon="6.90582">
        <ele>154</ele>
        <time>2015-05-07T14:41:46 +0200</time>
      </trkpt>
      <trkpt lat="43.46201" lon="6.90545">
        <ele>149</ele>
        <time>2015-05-07T14:42:17 +0200</time>
      </trkpt>
      <trkpt lat="43.46201" lon="6.90542">
        <ele>149</ele>
        <time>2015-05-07T14:42:19 +0200</time>
      </trkpt>
      <trkpt lat="43.46213" lon="6.90523">
        <ele>149</ele>
        <time>2015-05-07T14:42:39 +0200</time>
      </trkpt>
      <trkpt lat="43.46217" lon="6.90521">
        <ele>149</ele>
        <time>2015-05-07T14:42:43 +0200</time>
      </trkpt>
      <trkpt lat="43.46218" lon="6.90516">
        <ele>148</ele>
        <time>2015-05-07T14:42:47 +0200</time>
      </trkpt>
      <trkpt lat="43.46252" lon="6.90497">
        <ele>135</ele>
        <time>2015-05-07T14:43:19 +0200</time>
      </trkpt>
      <trkpt lat="43.46255" lon="6.90499">
        <ele>135</ele>
        <time>2015-05-07T14:43:24 +0200</time>
      </trkpt>
      <trkpt lat="43.46264" lon="6.90499">
        <ele>132</ele>
        <time>2015-05-07T14:43:29 +0200</time>
      </trkpt>
      <trkpt lat="43.46265" lon="6.90502">
        <ele>132</ele>
        <time>2015-05-07T14:43:31 +0200</time>
      </trkpt>
      <trkpt lat="43.46275" lon="6.90502">
        <ele>133</ele>
        <time>2015-05-07T14:43:38 +0200</time>
      </trkpt>
      <trkpt lat="43.46287" lon="6.90507">
        <ele>131</ele>
        <time>2015-05-07T14:43:50 +0200</time>
      </trkpt>
      <trkpt lat="43.4629" lon="6.90514">
        <ele>132</ele>
        <time>2015-05-07T14:43:54 +0200</time>
      </trkpt>
      <trkpt lat="43.46298" lon="6.9052">
        <ele>138</ele>
        <time>2015-05-07T14:44:01 +0200</time>
      </trkpt>
      <trkpt lat="43.46301" lon="6.90525">
        <ele>141</ele>
        <time>2015-05-07T14:44:06 +0200</time>
      </trkpt>
      <trkpt lat="43.46302" lon="6.90531">
        <ele>140</ele>
        <time>2015-05-07T14:44:10 +0200</time>
      </trkpt>
      <trkpt lat="43.46308" lon="6.90538">
        <ele>138</ele>
        <time>2015-05-07T14:44:18 +0200</time>
      </trkpt>
      <trkpt lat="43.46312" lon="6.90546">
        <ele>137</ele>
        <time>2015-05-07T14:44:24 +0200</time>
      </trkpt>
      <trkpt lat="43.46316" lon="6.90546">
        <ele>135</ele>
        <time>2015-05-07T14:44:27 +0200</time>
      </trkpt>
      <trkpt lat="43.4632" lon="6.9055">
        <ele>129</ele>
        <time>2015-05-07T14:44:31 +0200</time>
      </trkpt>
      <trkpt lat="43.4632" lon="6.90553">
        <ele>128</ele>
        <time>2015-05-07T14:44:33 +0200</time>
      </trkpt>
      <trkpt lat="43.46328" lon="6.90574">
        <ele>133</ele>
        <time>2015-05-07T14:44:46 +0200</time>
      </trkpt>
      <trkpt lat="43.46327" lon="6.90578">
        <ele>133</ele>
        <time>2015-05-07T14:44:48 +0200</time>
      </trkpt>
      <trkpt lat="43.46332" lon="6.90585">
        <ele>132</ele>
        <time>2015-05-07T14:44:54 +0200</time>
      </trkpt>
      <trkpt lat="43.46332" lon="6.90589">
        <ele>137</ele>
        <time>2015-05-07T14:44:56 +0200</time>
      </trkpt>
      <trkpt lat="43.46333" lon="6.90594">
        <ele>139</ele>
        <time>2015-05-07T14:44:59 +0200</time>
      </trkpt>
      <trkpt lat="43.46336" lon="6.90594">
        <ele>139</ele>
        <time>2015-05-07T14:45:01 +0200</time>
      </trkpt>
      <trkpt lat="43.46337" lon="6.90597">
        <ele>138</ele>
        <time>2015-05-07T14:45:05 +0200</time>
      </trkpt>
      <trkpt lat="43.46339" lon="6.90597">
        <ele>138</ele>
        <time>2015-05-07T14:45:07 +0200</time>
      </trkpt>
      <trkpt lat="43.46347" lon="6.90608">
        <ele>133</ele>
        <time>2015-05-07T14:45:20 +0200</time>
      </trkpt>
      <trkpt lat="43.46349" lon="6.90618">
        <ele>135</ele>
        <time>2015-05-07T14:45:26 +0200</time>
      </trkpt>
      <trkpt lat="43.46352" lon="6.90628">
        <ele>139</ele>
        <time>2015-05-07T14:45:37 +0200</time>
      </trkpt>
      <trkpt lat="43.4635" lon="6.90639">
        <ele>137</ele>
        <time>2015-05-07T14:45:42 +0200</time>
      </trkpt>
      <trkpt lat="43.46353" lon="6.90648">
        <ele>137</ele>
        <time>2015-05-07T14:45:49 +0200</time>
      </trkpt>
      <trkpt lat="43.46357" lon="6.90661">
        <ele>132</ele>
        <time>2015-05-07T14:45:59 +0200</time>
      </trkpt>
      <trkpt lat="43.4636" lon="6.90667">
        <ele>130</ele>
        <time>2015-05-07T14:46:04 +0200</time>
      </trkpt>
      <trkpt lat="43.46362" lon="6.90672">
        <ele>130</ele>
        <time>2015-05-07T14:46:08 +0200</time>
      </trkpt>
      <trkpt lat="43.46364" lon="6.90675">
        <ele>128</ele>
        <time>2015-05-07T14:46:12 +0200</time>
      </trkpt>
      <trkpt lat="43.46364" lon="6.90678">
        <ele>128</ele>
        <time>2015-05-07T14:46:15 +0200</time>
      </trkpt>
      <trkpt lat="43.46369" lon="6.9068">
        <ele>126</ele>
        <time>2015-05-07T14:46:20 +0200</time>
      </trkpt>
      <trkpt lat="43.46374" lon="6.90675">
        <ele>128</ele>
        <time>2015-05-07T14:46:31 +0200</time>
      </trkpt>
      <trkpt lat="43.46375" lon="6.90659">
        <ele>126</ele>
        <time>2015-05-07T14:46:42 +0200</time>
      </trkpt>
      <trkpt lat="43.46374" lon="6.90657">
        <ele>126</ele>
        <time>2015-05-07T14:46:44 +0200</time>
      </trkpt>
      <trkpt lat="43.46374" lon="6.90654">
        <ele>126</ele>
        <time>2015-05-07T14:46:45 +0200</time>
      </trkpt>
      <trkpt lat="43.46374" lon="6.90652">
        <ele>127</ele>
        <time>2015-05-07T14:46:47 +0200</time>
      </trkpt>
      <trkpt lat="43.46373" lon="6.9065">
        <ele>127</ele>
        <time>2015-05-07T14:46:48 +0200</time>
      </trkpt>
      <trkpt lat="43.46373" lon="6.90647">
        <ele>128</ele>
        <time>2015-05-07T14:46:50 +0200</time>
      </trkpt>
      <trkpt lat="43.46373" lon="6.90645">
        <ele>128</ele>
        <time>2015-05-07T14:46:51 +0200</time>
      </trkpt>
      <trkpt lat="43.46372" lon="6.90639">
        <ele>129</ele>
        <time>2015-05-07T14:46:55 +0200</time>
      </trkpt>
      <trkpt lat="43.46374" lon="6.90634">
        <ele>131</ele>
        <time>2015-05-07T14:46:59 +0200</time>
      </trkpt>
      <trkpt lat="43.46374" lon="6.90631">
        <ele>131</ele>
        <time>2015-05-07T14:47:01 +0200</time>
      </trkpt>
      <trkpt lat="43.46377" lon="6.90629">
        <ele>130</ele>
        <time>2015-05-07T14:47:04 +0200</time>
      </trkpt>
      <trkpt lat="43.46377" lon="6.90621">
        <ele>130</ele>
        <time>2015-05-07T14:47:09 +0200</time>
      </trkpt>
      <trkpt lat="43.46378" lon="6.90619">
        <ele>130</ele>
        <time>2015-05-07T14:47:10 +0200</time>
      </trkpt>
      <trkpt lat="43.46378" lon="6.90614">
        <ele>130</ele>
        <time>2015-05-07T14:47:13 +0200</time>
      </trkpt>
      <trkpt lat="43.46388" lon="6.90584">
        <ele>128</ele>
        <time>2015-05-07T14:47:34 +0200</time>
      </trkpt>
      <trkpt lat="43.46386" lon="6.90583">
        <ele>128</ele>
        <time>2015-05-07T14:47:36 +0200</time>
      </trkpt>
      <trkpt lat="43.46384" lon="6.90582">
        <ele>128</ele>
        <time>2015-05-07T14:47:38 +0200</time>
      </trkpt>
      <trkpt lat="43.46382" lon="6.90581">
        <ele>127</ele>
        <time>2015-05-07T14:47:39 +0200</time>
      </trkpt>
      <trkpt lat="43.4638" lon="6.90579">
        <ele>126</ele>
        <time>2015-05-07T14:47:41 +0200</time>
      </trkpt>
      <trkpt lat="43.46379" lon="6.90576">
        <ele>125</ele>
        <time>2015-05-07T14:47:44 +0200</time>
      </trkpt>
      <trkpt lat="43.46376" lon="6.90576">
        <ele>125</ele>
        <time>2015-05-07T14:47:45 +0200</time>
      </trkpt>
      <trkpt lat="43.46374" lon="6.90574">
        <ele>124</ele>
        <time>2015-05-07T14:47:47 +0200</time>
      </trkpt>
      <trkpt lat="43.4637" lon="6.9057">
        <ele>125</ele>
        <time>2015-05-07T14:47:51 +0200</time>
      </trkpt>
      <trkpt lat="43.4637" lon="6.90566">
        <ele>125</ele>
        <time>2015-05-07T14:47:53 +0200</time>
      </trkpt>
      <trkpt lat="43.4637" lon="6.90564">
        <ele>125</ele>
        <time>2015-05-07T14:47:54 +0200</time>
      </trkpt>
      <trkpt lat="43.46368" lon="6.90563">
        <ele>126</ele>
        <time>2015-05-07T14:47:56 +0200</time>
      </trkpt>
      <trkpt lat="43.46366" lon="6.90561">
        <ele>125</ele>
        <time>2015-05-07T14:47:58 +0200</time>
      </trkpt>
      <trkpt lat="43.46365" lon="6.90556">
        <ele>125</ele>
        <time>2015-05-07T14:48:01 +0200</time>
      </trkpt>
      <trkpt lat="43.46362" lon="6.90553">
        <ele>124</ele>
        <time>2015-05-07T14:48:03 +0200</time>
      </trkpt>
      <trkpt lat="43.46363" lon="6.9055">
        <ele>124</ele>
        <time>2015-05-07T14:48:05 +0200</time>
      </trkpt>
      <trkpt lat="43.46361" lon="6.90548">
        <ele>124</ele>
        <time>2015-05-07T14:48:07 +0200</time>
      </trkpt>
      <trkpt lat="43.46359" lon="6.90546">
        <ele>125</ele>
        <time>2015-05-07T14:48:09 +0200</time>
      </trkpt>
      <trkpt lat="43.46359" lon="6.90544">
        <ele>124</ele>
        <time>2015-05-07T14:48:10 +0200</time>
      </trkpt>
      <trkpt lat="43.46357" lon="6.90541">
        <ele>124</ele>
        <time>2015-05-07T14:48:12 +0200</time>
      </trkpt>
      <trkpt lat="43.46357" lon="6.90538">
        <ele>124</ele>
        <time>2015-05-07T14:48:14 +0200</time>
      </trkpt>
      <trkpt lat="43.46355" lon="6.90531">
        <ele>122</ele>
        <time>2015-05-07T14:48:19 +0200</time>
      </trkpt>
      <trkpt lat="43.46351" lon="6.90522">
        <ele>122</ele>
        <time>2015-05-07T14:48:27 +0200</time>
      </trkpt>
      <trkpt lat="43.46352" lon="6.90515">
        <ele>122</ele>
        <time>2015-05-07T14:48:29 +0200</time>
      </trkpt>
      <trkpt lat="43.46354" lon="6.9051">
        <ele>123</ele>
        <time>2015-05-07T14:48:30 +0200</time>
      </trkpt>
      <trkpt lat="43.46354" lon="6.90504">
        <ele>122</ele>
        <time>2015-05-07T14:48:32 +0200</time>
      </trkpt>
      <trkpt lat="43.46347" lon="6.90503">
        <ele>121</ele>
        <time>2015-05-07T14:48:35 +0200</time>
      </trkpt>
      <trkpt lat="43.46345" lon="6.90497">
        <ele>120</ele>
        <time>2015-05-07T14:48:41 +0200</time>
      </trkpt>
      <trkpt lat="43.46343" lon="6.90489">
        <ele>119</ele>
        <time>2015-05-07T14:48:45 +0200</time>
      </trkpt>
      <trkpt lat="43.46345" lon="6.9048">
        <ele>119</ele>
        <time>2015-05-07T14:48:52 +0200</time>
      </trkpt>
      <trkpt lat="43.4634" lon="6.90476">
        <ele>119</ele>
        <time>2015-05-07T14:48:59 +0200</time>
      </trkpt>
      <trkpt lat="43.46338" lon="6.90473">
        <ele>120</ele>
        <time>2015-05-07T14:49:02 +0200</time>
      </trkpt>
      <trkpt lat="43.46334" lon="6.90471">
        <ele>120</ele>
        <time>2015-05-07T14:49:05 +0200</time>
      </trkpt>
      <trkpt lat="43.46333" lon="6.90461">
        <ele>119</ele>
        <time>2015-05-07T14:49:10 +0200</time>
      </trkpt>
      <trkpt lat="43.46326" lon="6.90459">
        <ele>117</ele>
        <time>2015-05-07T14:49:15 +0200</time>
      </trkpt>
      <trkpt lat="43.46325" lon="6.90453">
        <ele>115</ele>
        <time>2015-05-07T14:49:19 +0200</time>
      </trkpt>
      <trkpt lat="43.46318" lon="6.9045">
        <ele>114</ele>
        <time>2015-05-07T14:49:24 +0200</time>
      </trkpt>
      <trkpt lat="43.46314" lon="6.90446">
        <ele>113</ele>
        <time>2015-05-07T14:49:29 +0200</time>
      </trkpt>
      <trkpt lat="43.46309" lon="6.90441">
        <ele>113</ele>
        <time>2015-05-07T14:49:34 +0200</time>
      </trkpt>
      <trkpt lat="43.463" lon="6.90443">
        <ele>113</ele>
        <time>2015-05-07T14:49:37 +0200</time>
      </trkpt>
      <trkpt lat="43.46291" lon="6.90429">
        <ele>113</ele>
        <time>2015-05-07T14:49:48 +0200</time>
      </trkpt>
      <trkpt lat="43.4629" lon="6.90411">
        <ele>111</ele>
        <time>2015-05-07T14:49:56 +0200</time>
      </trkpt>
      <trkpt lat="43.46285" lon="6.904">
        <ele>107</ele>
        <time>2015-05-07T14:50:05 +0200</time>
      </trkpt>
      <trkpt lat="43.46279" lon="6.904">
        <ele>107</ele>
        <time>2015-05-07T14:50:08 +0200</time>
      </trkpt>
      <trkpt lat="43.46275" lon="6.90396">
        <ele>102</ele>
        <time>2015-05-07T14:50:12 +0200</time>
      </trkpt>
      <trkpt lat="43.46274" lon="6.90388">
        <ele>100</ele>
        <time>2015-05-07T14:50:15 +0200</time>
      </trkpt>
      <trkpt lat="43.46271" lon="6.90382">
        <ele>100</ele>
        <time>2015-05-07T14:50:18 +0200</time>
      </trkpt>
      <trkpt lat="43.46267" lon="6.90378">
        <ele>101</ele>
        <time>2015-05-07T14:50:22 +0200</time>
      </trkpt>
      <trkpt lat="43.46257" lon="6.90348">
        <ele>106</ele>
        <time>2015-05-07T14:50:41 +0200</time>
      </trkpt>
      <trkpt lat="43.46257" lon="6.90346">
        <ele>106</ele>
        <time>2015-05-07T14:50:42 +0200</time>
      </trkpt>
      <trkpt lat="43.46249" lon="6.90293">
        <ele>107</ele>
        <time>2015-05-07T14:51:12 +0200</time>
      </trkpt>
      <trkpt lat="43.4625" lon="6.90285">
        <ele>104</ele>
        <time>2015-05-07T14:51:14 +0200</time>
      </trkpt>
      <trkpt lat="43.46247" lon="6.90281">
        <ele>103</ele>
        <time>2015-05-07T14:51:17 +0200</time>
      </trkpt>
      <trkpt lat="43.46248" lon="6.90276">
        <ele>103</ele>
        <time>2015-05-07T14:51:19 +0200</time>
      </trkpt>
      <trkpt lat="43.46245" lon="6.90265">
        <ele>103</ele>
        <time>2015-05-07T14:51:25 +0200</time>
      </trkpt>
      <trkpt lat="43.46242" lon="6.90264">
        <ele>104</ele>
        <time>2015-05-07T14:51:31 +0200</time>
      </trkpt>
      <trkpt lat="43.46238" lon="6.90264">
        <ele>107</ele>
        <time>2015-05-07T14:51:33 +0200</time>
      </trkpt>
      <trkpt lat="43.46237" lon="6.90261">
        <ele>108</ele>
        <time>2015-05-07T14:51:35 +0200</time>
      </trkpt>
      <trkpt lat="43.46235" lon="6.90258">
        <ele>109</ele>
        <time>2015-05-07T14:51:38 +0200</time>
      </trkpt>
      <trkpt lat="43.46232" lon="6.90252">
        <ele>110</ele>
        <time>2015-05-07T14:51:43 +0200</time>
      </trkpt>
      <trkpt lat="43.4623" lon="6.9025">
        <ele>110</ele>
        <time>2015-05-07T14:51:45 +0200</time>
      </trkpt>
      <trkpt lat="43.46229" lon="6.90246">
        <ele>110</ele>
        <time>2015-05-07T14:51:48 +0200</time>
      </trkpt>
      <trkpt lat="43.4623" lon="6.90234">
        <ele>107</ele>
        <time>2015-05-07T14:51:50 +0200</time>
      </trkpt>
      <trkpt lat="43.46229" lon="6.9023">
        <ele>105</ele>
        <time>2015-05-07T14:51:53 +0200</time>
      </trkpt>
      <trkpt lat="43.46229" lon="6.90226">
        <ele>103</ele>
        <time>2015-05-07T14:51:55 +0200</time>
      </trkpt>
      <trkpt lat="43.46227" lon="6.90223">
        <ele>99</ele>
        <time>2015-05-07T14:51:57 +0200</time>
      </trkpt>
      <trkpt lat="43.46226" lon="6.90211">
        <ele>100</ele>
        <time>2015-05-07T14:52:07 +0200</time>
      </trkpt>
      <trkpt lat="43.46226" lon="6.90208">
        <ele>104</ele>
        <time>2015-05-07T14:52:10 +0200</time>
      </trkpt>
      <trkpt lat="43.4623" lon="6.90183">
        <ele>101</ele>
        <time>2015-05-07T14:52:24 +0200</time>
      </trkpt>
      <trkpt lat="43.46228" lon="6.90179">
        <ele>99</ele>
        <time>2015-05-07T14:52:28 +0200</time>
      </trkpt>
      <trkpt lat="43.46228" lon="6.90173">
        <ele>100</ele>
        <time>2015-05-07T14:52:30 +0200</time>
      </trkpt>
      <trkpt lat="43.46224" lon="6.90169">
        <ele>100</ele>
        <time>2015-05-07T14:52:31 +0200</time>
      </trkpt>
      <trkpt lat="43.46224" lon="6.90164">
        <ele>100</ele>
        <time>2015-05-07T14:52:33 +0200</time>
      </trkpt>
      <trkpt lat="43.46227" lon="6.90138">
        <ele>94</ele>
        <time>2015-05-07T14:52:48 +0200</time>
      </trkpt>
      <trkpt lat="43.46224" lon="6.9013">
        <ele>94</ele>
        <time>2015-05-07T14:52:54 +0200</time>
      </trkpt>
      <trkpt lat="43.46224" lon="6.90122">
        <ele>94</ele>
        <time>2015-05-07T14:52:58 +0200</time>
      </trkpt>
      <trkpt lat="43.46219" lon="6.90115">
        <ele>90</ele>
        <time>2015-05-07T14:53:03 +0200</time>
      </trkpt>
      <trkpt lat="43.46215" lon="6.90085">
        <ele>91</ele>
        <time>2015-05-07T14:53:21 +0200</time>
      </trkpt>
      <trkpt lat="43.46215" lon="6.90065">
        <ele>89</ele>
        <time>2015-05-07T14:53:34 +0200</time>
      </trkpt>
      <trkpt lat="43.4621" lon="6.9006">
        <ele>91</ele>
        <time>2015-05-07T14:53:39 +0200</time>
      </trkpt>
      <trkpt lat="43.46211" lon="6.90041">
        <ele>92</ele>
        <time>2015-05-07T14:53:53 +0200</time>
      </trkpt>
      <trkpt lat="43.46204" lon="6.89987">
        <ele>86</ele>
        <time>2015-05-07T14:54:23 +0200</time>
      </trkpt>
      <trkpt lat="43.46206" lon="6.8997">
        <ele>87</ele>
        <time>2015-05-07T14:54:32 +0200</time>
      </trkpt>
      <trkpt lat="43.46205" lon="6.89964">
        <ele>89</ele>
        <time>2015-05-07T14:54:37 +0200</time>
      </trkpt>
      <trkpt lat="43.46197" lon="6.89918">
        <ele>89</ele>
        <time>2015-05-07T14:55:03 +0200</time>
      </trkpt>
      <trkpt lat="43.46192" lon="6.89915">
        <ele>89</ele>
        <time>2015-05-07T14:55:06 +0200</time>
      </trkpt>
      <trkpt lat="43.46188" lon="6.89917">
        <ele>89</ele>
        <time>2015-05-07T14:55:08 +0200</time>
      </trkpt>
      <trkpt lat="43.46184" lon="6.89911">
        <ele>89</ele>
        <time>2015-05-07T14:55:11 +0200</time>
      </trkpt>
      <trkpt lat="43.46185" lon="6.89902">
        <ele>84</ele>
        <time>2015-05-07T14:55:15 +0200</time>
      </trkpt>
      <trkpt lat="43.46183" lon="6.89899">
        <ele>82</ele>
        <time>2015-05-07T14:55:19 +0200</time>
      </trkpt>
      <trkpt lat="43.46183" lon="6.89894">
        <ele>82</ele>
        <time>2015-05-07T14:55:22 +0200</time>
      </trkpt>
      <trkpt lat="43.46182" lon="6.89886">
        <ele>85</ele>
        <time>2015-05-07T14:55:26 +0200</time>
      </trkpt>
      <trkpt lat="43.46176" lon="6.89886">
        <ele>86</ele>
        <time>2015-05-07T14:55:31 +0200</time>
      </trkpt>
      <trkpt lat="43.46174" lon="6.89889">
        <ele>86</ele>
        <time>2015-05-07T14:55:32 +0200</time>
      </trkpt>
      <trkpt lat="43.46169" lon="6.89884">
        <ele>89</ele>
        <time>2015-05-07T14:55:38 +0200</time>
      </trkpt>
      <trkpt lat="43.46164" lon="6.89876">
        <ele>88</ele>
        <time>2015-05-07T14:55:44 +0200</time>
      </trkpt>
      <trkpt lat="43.46164" lon="6.8987">
        <ele>84</ele>
        <time>2015-05-07T14:55:46 +0200</time>
      </trkpt>
      <trkpt lat="43.46135" lon="6.89827">
        <ele>90</ele>
        <time>2015-05-07T14:56:19 +0200</time>
      </trkpt>
      <trkpt lat="43.46144" lon="6.89812">
        <ele>90</ele>
        <time>2015-05-07T14:56:27 +0200</time>
      </trkpt>
      <trkpt lat="43.46142" lon="6.8981">
        <ele>92</ele>
        <time>2015-05-07T14:56:30 +0200</time>
      </trkpt>
      <trkpt lat="43.46142" lon="6.89754">
        <ele>87</ele>
        <time>2015-05-07T14:57:01 +0200</time>
      </trkpt>
      <trkpt lat="43.46141" lon="6.89749">
        <ele>87</ele>
        <time>2015-05-07T14:57:03 +0200</time>
      </trkpt>
      <trkpt lat="43.46142" lon="6.89746">
        <ele>86</ele>
        <time>2015-05-07T14:57:04 +0200</time>
      </trkpt>
      <trkpt lat="43.46139" lon="6.89741">
        <ele>86</ele>
        <time>2015-05-07T14:57:09 +0200</time>
      </trkpt>
      <trkpt lat="43.46138" lon="6.89736">
        <ele>86</ele>
        <time>2015-05-07T14:57:11 +0200</time>
      </trkpt>
      <trkpt lat="43.46134" lon="6.89735">
        <ele>87</ele>
        <time>2015-05-07T14:57:15 +0200</time>
      </trkpt>
      <trkpt lat="43.46128" lon="6.89736">
        <ele>87</ele>
        <time>2015-05-07T14:57:18 +0200</time>
      </trkpt>
      <trkpt lat="43.46125" lon="6.89728">
        <ele>88</ele>
        <time>2015-05-07T14:57:23 +0200</time>
      </trkpt>
      <trkpt lat="43.46121" lon="6.89707">
        <ele>84</ele>
        <time>2015-05-07T14:57:33 +0200</time>
      </trkpt>
      <trkpt lat="43.46116" lon="6.89697">
        <ele>82</ele>
        <time>2015-05-07T14:57:40 +0200</time>
      </trkpt>
      <trkpt lat="43.46111" lon="6.89693">
        <ele>78</ele>
        <time>2015-05-07T14:57:44 +0200</time>
      </trkpt>
      <trkpt lat="43.46106" lon="6.8969">
        <ele>76</ele>
        <time>2015-05-07T14:57:47 +0200</time>
      </trkpt>
      <trkpt lat="43.46103" lon="6.89683">
        <ele>75</ele>
        <time>2015-05-07T14:57:50 +0200</time>
      </trkpt>
      <trkpt lat="43.46097" lon="6.89674">
        <ele>74</ele>
        <time>2015-05-07T14:58:00 +0200</time>
      </trkpt>
      <trkpt lat="43.46101" lon="6.89655">
        <ele>75</ele>
        <time>2015-05-07T14:58:09 +0200</time>
      </trkpt>
      <trkpt lat="43.46098" lon="6.89652">
        <ele>75</ele>
        <time>2015-05-07T14:58:11 +0200</time>
      </trkpt>
      <trkpt lat="43.46096" lon="6.89651">
        <ele>75</ele>
        <time>2015-05-07T14:58:12 +0200</time>
      </trkpt>
      <trkpt lat="43.46092" lon="6.89644">
        <ele>73</ele>
        <time>2015-05-07T14:58:16 +0200</time>
      </trkpt>
      <trkpt lat="43.46092" lon="6.89639">
        <ele>72</ele>
        <time>2015-05-07T14:58:18 +0200</time>
      </trkpt>
      <trkpt lat="43.46089" lon="6.89638">
        <ele>73</ele>
        <time>2015-05-07T14:58:21 +0200</time>
      </trkpt>
      <trkpt lat="43.46089" lon="6.8963">
        <ele>73</ele>
        <time>2015-05-07T14:58:25 +0200</time>
      </trkpt>
      <trkpt lat="43.4609" lon="6.89626">
        <ele>73</ele>
        <time>2015-05-07T14:58:26 +0200</time>
      </trkpt>
      <trkpt lat="43.4609" lon="6.89616">
        <ele>74</ele>
        <time>2015-05-07T14:58:33 +0200</time>
      </trkpt>
      <trkpt lat="43.46087" lon="6.89613">
        <ele>74</ele>
        <time>2015-05-07T14:58:37 +0200</time>
      </trkpt>
      <trkpt lat="43.46088" lon="6.89609">
        <ele>74</ele>
        <time>2015-05-07T14:58:38 +0200</time>
      </trkpt>
      <trkpt lat="43.46086" lon="6.89604">
        <ele>74</ele>
        <time>2015-05-07T14:58:40 +0200</time>
      </trkpt>
      <trkpt lat="43.46088" lon="6.896">
        <ele>77</ele>
        <time>2015-05-07T14:58:42 +0200</time>
      </trkpt>
      <trkpt lat="43.46086" lon="6.89597">
        <ele>77</ele>
        <time>2015-05-07T14:58:44 +0200</time>
      </trkpt>
      <trkpt lat="43.46085" lon="6.8959">
        <ele>77</ele>
        <time>2015-05-07T14:58:48 +0200</time>
      </trkpt>
      <trkpt lat="43.46082" lon="6.89588">
        <ele>77</ele>
        <time>2015-05-07T14:58:50 +0200</time>
      </trkpt>
      <trkpt lat="43.46082" lon="6.89586">
        <ele>77</ele>
        <time>2015-05-07T14:58:51 +0200</time>
      </trkpt>
      <trkpt lat="43.4608" lon="6.89583">
        <ele>77</ele>
        <time>2015-05-07T14:58:53 +0200</time>
      </trkpt>
      <trkpt lat="43.46079" lon="6.89577">
        <ele>76</ele>
        <time>2015-05-07T14:58:56 +0200</time>
      </trkpt>
      <trkpt lat="43.4608" lon="6.89575">
        <ele>76</ele>
        <time>2015-05-07T14:58:57 +0200</time>
      </trkpt>
      <trkpt lat="43.46076" lon="6.89519">
        <ele>78</ele>
        <time>2015-05-07T14:59:27 +0200</time>
      </trkpt>
      <trkpt lat="43.46076" lon="6.89516">
        <ele>78</ele>
        <time>2015-05-07T14:59:29 +0200</time>
      </trkpt>
      <trkpt lat="43.46077" lon="6.89513">
        <ele>78</ele>
        <time>2015-05-07T14:59:30 +0200</time>
      </trkpt>
      <trkpt lat="43.46076" lon="6.89504">
        <ele>79</ele>
        <time>2015-05-07T14:59:35 +0200</time>
      </trkpt>
      <trkpt lat="43.46074" lon="6.89495">
        <ele>79</ele>
        <time>2015-05-07T14:59:41 +0200</time>
      </trkpt>
      <trkpt lat="43.46073" lon="6.89492">
        <ele>78</ele>
        <time>2015-05-07T14:59:43 +0200</time>
      </trkpt>
      <trkpt lat="43.46074" lon="6.89484">
        <ele>78</ele>
        <time>2015-05-07T14:59:47 +0200</time>
      </trkpt>
      <trkpt lat="43.46071" lon="6.89484">
        <ele>78</ele>
        <time>2015-05-07T14:59:48 +0200</time>
      </trkpt>
      <trkpt lat="43.4607" lon="6.89476">
        <ele>77</ele>
        <time>2015-05-07T14:59:52 +0200</time>
      </trkpt>
      <trkpt lat="43.46069" lon="6.89467">
        <ele>77</ele>
        <time>2015-05-07T14:59:56 +0200</time>
      </trkpt>
      <trkpt lat="43.46067" lon="6.89461">
        <ele>77</ele>
        <time>2015-05-07T15:00:00 +0200</time>
      </trkpt>
      <trkpt lat="43.46066" lon="6.89449">
        <ele>77</ele>
        <time>2015-05-07T15:00:06 +0200</time>
      </trkpt>
      <trkpt lat="43.46064" lon="6.89447">
        <ele>77</ele>
        <time>2015-05-07T15:00:08 +0200</time>
      </trkpt>
      <trkpt lat="43.46063" lon="6.89445">
        <ele>77</ele>
        <time>2015-05-07T15:00:10 +0200</time>
      </trkpt>
      <trkpt lat="43.46063" lon="6.8942">
        <ele>76</ele>
        <time>2015-05-07T15:00:23 +0200</time>
      </trkpt>
      <trkpt lat="43.46065" lon="6.89414">
        <ele>76</ele>
        <time>2015-05-07T15:00:28 +0200</time>
      </trkpt>
      <trkpt lat="43.46067" lon="6.89413">
        <ele>76</ele>
        <time>2015-05-07T15:00:30 +0200</time>
      </trkpt>
      <trkpt lat="43.46069" lon="6.89408">
        <ele>78</ele>
        <time>2015-05-07T15:00:34 +0200</time>
      </trkpt>
      <trkpt lat="43.46069" lon="6.89404">
        <ele>77</ele>
        <time>2015-05-07T15:00:36 +0200</time>
      </trkpt>
      <trkpt lat="43.46072" lon="6.89401">
        <ele>77</ele>
        <time>2015-05-07T15:00:38 +0200</time>
      </trkpt>
      <trkpt lat="43.46073" lon="6.89395">
        <ele>77</ele>
        <time>2015-05-07T15:00:41 +0200</time>
      </trkpt>
      <trkpt lat="43.46072" lon="6.89393">
        <ele>77</ele>
        <time>2015-05-07T15:00:43 +0200</time>
      </trkpt>
      <trkpt lat="43.46069" lon="6.89387">
        <ele>76</ele>
        <time>2015-05-07T15:00:47 +0200</time>
      </trkpt>
      <trkpt lat="43.46058" lon="6.89378">
        <ele>76</ele>
        <time>2015-05-07T15:00:56 +0200</time>
      </trkpt>
      <trkpt lat="43.46057" lon="6.89376">
        <ele>76</ele>
        <time>2015-05-07T15:00:57 +0200</time>
      </trkpt>
      <trkpt lat="43.46057" lon="6.89373">
        <ele>75</ele>
        <time>2015-05-07T15:00:59 +0200</time>
      </trkpt>
      <trkpt lat="43.46058" lon="6.89371">
        <ele>75</ele>
        <time>2015-05-07T15:01:00 +0200</time>
      </trkpt>
      <trkpt lat="43.4606" lon="6.89355">
        <ele>76</ele>
        <time>2015-05-07T15:01:10 +0200</time>
      </trkpt>
      <trkpt lat="43.46062" lon="6.89348">
        <ele>77</ele>
        <time>2015-05-07T15:01:14 +0200</time>
      </trkpt>
      <trkpt lat="43.46062" lon="6.89345">
        <ele>78</ele>
        <time>2015-05-07T15:01:17 +0200</time>
      </trkpt>
      <trkpt lat="43.46067" lon="6.89321">
        <ele>77</ele>
        <time>2015-05-07T15:01:29 +0200</time>
      </trkpt>
      <trkpt lat="43.46072" lon="6.89317">
        <ele>76</ele>
        <time>2015-05-07T15:01:32 +0200</time>
      </trkpt>
      <trkpt lat="43.46073" lon="6.89305">
        <ele>78</ele>
        <time>2015-05-07T15:01:40 +0200</time>
      </trkpt>
      <trkpt lat="43.46075" lon="6.89299">
        <ele>78</ele>
        <time>2015-05-07T15:01:43 +0200</time>
      </trkpt>
      <trkpt lat="43.46077" lon="6.89297">
        <ele>78</ele>
        <time>2015-05-07T15:01:45 +0200</time>
      </trkpt>
      <trkpt lat="43.46092" lon="6.89292">
        <ele>79</ele>
        <time>2015-05-07T15:01:58 +0200</time>
      </trkpt>
      <trkpt lat="43.46096" lon="6.89294">
        <ele>79</ele>
        <time>2015-05-07T15:02:01 +0200</time>
      </trkpt>
      <trkpt lat="43.46099" lon="6.89293">
        <ele>80</ele>
        <time>2015-05-07T15:02:03 +0200</time>
      </trkpt>
      <trkpt lat="43.46105" lon="6.89294">
        <ele>80</ele>
        <time>2015-05-07T15:02:09 +0200</time>
      </trkpt>
      <trkpt lat="43.46113" lon="6.89291">
        <ele>80</ele>
        <time>2015-05-07T15:02:16 +0200</time>
      </trkpt>
      <trkpt lat="43.46115" lon="6.89288">
        <ele>80</ele>
        <time>2015-05-07T15:02:18 +0200</time>
      </trkpt>
      <trkpt lat="43.46115" lon="6.89285">
        <ele>80</ele>
        <time>2015-05-07T15:02:19 +0200</time>
      </trkpt>
      <trkpt lat="43.46116" lon="6.89273">
        <ele>80</ele>
        <time>2015-05-07T15:02:24 +0200</time>
      </trkpt>
      <trkpt lat="43.46115" lon="6.89269">
        <ele>79</ele>
        <time>2015-05-07T15:02:26 +0200</time>
      </trkpt>
      <trkpt lat="43.46103" lon="6.89265">
        <ele>75</ele>
        <time>2015-05-07T15:02:34 +0200</time>
      </trkpt>
      <trkpt lat="43.46103" lon="6.89262">
        <ele>74</ele>
        <time>2015-05-07T15:02:35 +0200</time>
      </trkpt>
      <trkpt lat="43.46102" lon="6.89259">
        <ele>73</ele>
        <time>2015-05-07T15:02:37 +0200</time>
      </trkpt>
      <trkpt lat="43.46097" lon="6.89256">
        <ele>72</ele>
        <time>2015-05-07T15:02:41 +0200</time>
      </trkpt>
      <trkpt lat="43.46095" lon="6.89253">
        <ele>71</ele>
        <time>2015-05-07T15:02:43 +0200</time>
      </trkpt>
      <trkpt lat="43.46088" lon="6.89246">
        <ele>71</ele>
        <time>2015-05-07T15:02:50 +0200</time>
      </trkpt>
      <trkpt lat="43.46085" lon="6.89242">
        <ele>71</ele>
        <time>2015-05-07T15:02:52 +0200</time>
      </trkpt>
      <trkpt lat="43.46085" lon="6.89239">
        <ele>71</ele>
        <time>2015-05-07T15:02:54 +0200</time>
      </trkpt>
      <trkpt lat="43.46085" lon="6.89228">
        <ele>73</ele>
        <time>2015-05-07T15:03:01 +0200</time>
      </trkpt>
      <trkpt lat="43.46087" lon="6.89225">
        <ele>74</ele>
        <time>2015-05-07T15:03:03 +0200</time>
      </trkpt>
      <trkpt lat="43.46087" lon="6.89223">
        <ele>74</ele>
        <time>2015-05-07T15:03:05 +0200</time>
      </trkpt>
      <trkpt lat="43.46091" lon="6.89197">
        <ele>73</ele>
        <time>2015-05-07T15:03:17 +0200</time>
      </trkpt>
      <trkpt lat="43.4609" lon="6.89193">
        <ele>74</ele>
        <time>2015-05-07T15:03:19 +0200</time>
      </trkpt>
      <trkpt lat="43.4609" lon="6.8919">
        <ele>74</ele>
        <time>2015-05-07T15:03:21 +0200</time>
      </trkpt>
      <trkpt lat="43.46091" lon="6.89186">
        <ele>73</ele>
        <time>2015-05-07T15:03:23 +0200</time>
      </trkpt>
      <trkpt lat="43.4609" lon="6.89181">
        <ele>72</ele>
        <time>2015-05-07T15:03:25 +0200</time>
      </trkpt>
      <trkpt lat="43.4609" lon="6.89179">
        <ele>72</ele>
        <time>2015-05-07T15:03:26 +0200</time>
      </trkpt>
      <trkpt lat="43.46089" lon="6.89175">
        <ele>72</ele>
        <time>2015-05-07T15:03:29 +0200</time>
      </trkpt>
      <trkpt lat="43.4609" lon="6.89173">
        <ele>72</ele>
        <time>2015-05-07T15:03:30 +0200</time>
      </trkpt>
      <trkpt lat="43.4609" lon="6.89169">
        <ele>72</ele>
        <time>2015-05-07T15:03:32 +0200</time>
      </trkpt>
      <trkpt lat="43.46089" lon="6.89168">
        <ele>72</ele>
        <time>2015-05-07T15:03:33 +0200</time>
      </trkpt>
      <trkpt lat="43.46099" lon="6.89118">
        <ele>74</ele>
        <time>2015-05-07T15:04:03 +0200</time>
      </trkpt>
      <trkpt lat="43.46103" lon="6.89109">
        <ele>71</ele>
        <time>2015-05-07T15:04:37 +0200</time>
      </trkpt>
      <trkpt lat="43.46105" lon="6.89106">
        <ele>71</ele>
        <time>2015-05-07T15:04:38 +0200</time>
      </trkpt>
      <trkpt lat="43.46106" lon="6.89097">
        <ele>72</ele>
        <time>2015-05-07T15:04:41 +0200</time>
      </trkpt>
      <trkpt lat="43.46105" lon="6.89094">
        <ele>73</ele>
        <time>2015-05-07T15:04:43 +0200</time>
      </trkpt>
      <trkpt lat="43.46105" lon="6.89089">
        <ele>74</ele>
        <time>2015-05-07T15:04:45 +0200</time>
      </trkpt>
      <trkpt lat="43.46106" lon="6.89082">
        <ele>78</ele>
        <time>2015-05-07T15:04:49 +0200</time>
      </trkpt>
      <trkpt lat="43.46108" lon="6.89078">
        <ele>79</ele>
        <time>2015-05-07T15:04:51 +0200</time>
      </trkpt>
      <trkpt lat="43.46111" lon="6.89075">
        <ele>79</ele>
        <time>2015-05-07T15:04:53 +0200</time>
      </trkpt>
      <trkpt lat="43.46114" lon="6.8907">
        <ele>81</ele>
        <time>2015-05-07T15:04:57 +0200</time>
      </trkpt>
      <trkpt lat="43.46117" lon="6.89063">
        <ele>81</ele>
        <time>2015-05-07T15:05:00 +0200</time>
      </trkpt>
      <trkpt lat="43.46116" lon="6.89053">
        <ele>80</ele>
        <time>2015-05-07T15:05:06 +0200</time>
      </trkpt>
      <trkpt lat="43.46114" lon="6.89047">
        <ele>76</ele>
        <time>2015-05-07T15:05:10 +0200</time>
      </trkpt>
      <trkpt lat="43.46108" lon="6.89043">
        <ele>75</ele>
        <time>2015-05-07T15:05:14 +0200</time>
      </trkpt>
      <trkpt lat="43.46107" lon="6.8904">
        <ele>75</ele>
        <time>2015-05-07T15:05:15 +0200</time>
      </trkpt>
      <trkpt lat="43.46105" lon="6.89037">
        <ele>75</ele>
        <time>2015-05-07T15:05:17 +0200</time>
      </trkpt>
      <trkpt lat="43.46104" lon="6.89035">
        <ele>75</ele>
        <time>2015-05-07T15:05:18 +0200</time>
      </trkpt>
      <trkpt lat="43.46102" lon="6.89034">
        <ele>75</ele>
        <time>2015-05-07T15:05:19 +0200</time>
      </trkpt>
      <trkpt lat="43.46097" lon="6.89018">
        <ele>75</ele>
        <time>2015-05-07T15:05:29 +0200</time>
      </trkpt>
      <trkpt lat="43.46095" lon="6.89016">
        <ele>74</ele>
        <time>2015-05-07T15:05:31 +0200</time>
      </trkpt>
      <trkpt lat="43.46093" lon="6.89011">
        <ele>73</ele>
        <time>2015-05-07T15:05:33 +0200</time>
      </trkpt>
      <trkpt lat="43.46092" lon="6.89009">
        <ele>73</ele>
        <time>2015-05-07T15:05:35 +0200</time>
      </trkpt>
      <trkpt lat="43.46088" lon="6.88997">
        <ele>73</ele>
        <time>2015-05-07T15:05:42 +0200</time>
      </trkpt>
      <trkpt lat="43.46087" lon="6.88995">
        <ele>73</ele>
        <time>2015-05-07T15:05:44 +0200</time>
      </trkpt>
      <trkpt lat="43.46085" lon="6.88994">
        <ele>73</ele>
        <time>2015-05-07T15:05:46 +0200</time>
      </trkpt>
      <trkpt lat="43.46085" lon="6.88991">
        <ele>73</ele>
        <time>2015-05-07T15:05:48 +0200</time>
      </trkpt>
      <trkpt lat="43.46085" lon="6.88988">
        <ele>73</ele>
        <time>2015-05-07T15:05:49 +0200</time>
      </trkpt>
      <trkpt lat="43.46084" lon="6.88985">
        <ele>72</ele>
        <time>2015-05-07T15:05:50 +0200</time>
      </trkpt>
      <trkpt lat="43.46083" lon="6.8898">
        <ele>72</ele>
        <time>2015-05-07T15:05:53 +0200</time>
      </trkpt>
      <trkpt lat="43.46085" lon="6.88974">
        <ele>72</ele>
        <time>2015-05-07T15:05:56 +0200</time>
      </trkpt>
      <trkpt lat="43.46084" lon="6.88973">
        <ele>72</ele>
        <time>2015-05-07T15:05:57 +0200</time>
      </trkpt>
      <trkpt lat="43.46081" lon="6.88963">
        <ele>73</ele>
        <time>2015-05-07T15:06:02 +0200</time>
      </trkpt>
      <trkpt lat="43.4608" lon="6.88962">
        <ele>73</ele>
        <time>2015-05-07T15:06:03 +0200</time>
      </trkpt>
      <trkpt lat="43.46077" lon="6.88942">
        <ele>70</ele>
        <time>2015-05-07T15:06:14 +0200</time>
      </trkpt>
      <trkpt lat="43.46079" lon="6.88939">
        <ele>69</ele>
        <time>2015-05-07T15:06:16 +0200</time>
      </trkpt>
      <trkpt lat="43.46078" lon="6.88937">
        <ele>69</ele>
        <time>2015-05-07T15:06:17 +0200</time>
      </trkpt>
      <trkpt lat="43.46079" lon="6.88934">
        <ele>69</ele>
        <time>2015-05-07T15:06:19 +0200</time>
      </trkpt>
      <trkpt lat="43.46078" lon="6.88914">
        <ele>69</ele>
        <time>2015-05-07T15:06:30 +0200</time>
      </trkpt>
      <trkpt lat="43.46077" lon="6.8891">
        <ele>69</ele>
        <time>2015-05-07T15:06:32 +0200</time>
      </trkpt>
      <trkpt lat="43.46074" lon="6.88906">
        <ele>71</ele>
        <time>2015-05-07T15:06:34 +0200</time>
      </trkpt>
      <trkpt lat="43.46073" lon="6.88902">
        <ele>71</ele>
        <time>2015-05-07T15:06:36 +0200</time>
      </trkpt>
      <trkpt lat="43.46071" lon="6.889">
        <ele>72</ele>
        <time>2015-05-07T15:06:38 +0200</time>
      </trkpt>
      <trkpt lat="43.46071" lon="6.88894">
        <ele>72</ele>
        <time>2015-05-07T15:06:41 +0200</time>
      </trkpt>
      <trkpt lat="43.4607" lon="6.88891">
        <ele>72</ele>
        <time>2015-05-07T15:06:43 +0200</time>
      </trkpt>
      <trkpt lat="43.46069" lon="6.8889">
        <ele>71</ele>
        <time>2015-05-07T15:06:44 +0200</time>
      </trkpt>
      <trkpt lat="43.46069" lon="6.88888">
        <ele>71</ele>
        <time>2015-05-07T15:06:45 +0200</time>
      </trkpt>
      <trkpt lat="43.46067" lon="6.88887">
        <ele>72</ele>
        <time>2015-05-07T15:06:50 +0200</time>
      </trkpt>
      <trkpt lat="43.46044" lon="6.88831">
        <ele>69</ele>
        <time>2015-05-07T15:07:20 +0200</time>
      </trkpt>
      <trkpt lat="43.46041" lon="6.8883">
        <ele>68</ele>
        <time>2015-05-07T15:07:22 +0200</time>
      </trkpt>
      <trkpt lat="43.46038" lon="6.88827">
        <ele>67</ele>
        <time>2015-05-07T15:07:25 +0200</time>
      </trkpt>
      <trkpt lat="43.46036" lon="6.88826">
        <ele>67</ele>
        <time>2015-05-07T15:07:27 +0200</time>
      </trkpt>
      <trkpt lat="43.46033" lon="6.8882">
        <ele>67</ele>
        <time>2015-05-07T15:07:31 +0200</time>
      </trkpt>
      <trkpt lat="43.46029" lon="6.88816">
        <ele>68</ele>
        <time>2015-05-07T15:07:35 +0200</time>
      </trkpt>
      <trkpt lat="43.46027" lon="6.88813">
        <ele>68</ele>
        <time>2015-05-07T15:07:37 +0200</time>
      </trkpt>
      <trkpt lat="43.46026" lon="6.8881">
        <ele>69</ele>
        <time>2015-05-07T15:07:39 +0200</time>
      </trkpt>
      <trkpt lat="43.46026" lon="6.88809">
        <ele>69</ele>
        <time>2015-05-07T15:07:40 +0200</time>
      </trkpt>
      <trkpt lat="43.46025" lon="6.88807">
        <ele>69</ele>
        <time>2015-05-07T15:07:41 +0200</time>
      </trkpt>
      <trkpt lat="43.46022" lon="6.88795">
        <ele>68</ele>
        <time>2015-05-07T15:07:48 +0200</time>
      </trkpt>
      <trkpt lat="43.46022" lon="6.88792">
        <ele>69</ele>
        <time>2015-05-07T15:07:50 +0200</time>
      </trkpt>
      <trkpt lat="43.4602" lon="6.88789">
        <ele>69</ele>
        <time>2015-05-07T15:07:53 +0200</time>
      </trkpt>
      <trkpt lat="43.4602" lon="6.88786">
        <ele>68</ele>
        <time>2015-05-07T15:07:54 +0200</time>
      </trkpt>
      <trkpt lat="43.46019" lon="6.88784">
        <ele>68</ele>
        <time>2015-05-07T15:07:56 +0200</time>
      </trkpt>
      <trkpt lat="43.46018" lon="6.88782">
        <ele>68</ele>
        <time>2015-05-07T15:07:58 +0200</time>
      </trkpt>
      <trkpt lat="43.4602" lon="6.88779">
        <ele>68</ele>
        <time>2015-05-07T15:07:59 +0200</time>
      </trkpt>
      <trkpt lat="43.46019" lon="6.88773">
        <ele>67</ele>
        <time>2015-05-07T15:08:03 +0200</time>
      </trkpt>
      <trkpt lat="43.46017" lon="6.88716">
        <ele>65</ele>
        <time>2015-05-07T15:08:33 +0200</time>
      </trkpt>
      <trkpt lat="43.46016" lon="6.88687">
        <ele>65</ele>
        <time>2015-05-07T15:08:47 +0200</time>
      </trkpt>
      <trkpt lat="43.46014" lon="6.88686">
        <ele>66</ele>
        <time>2015-05-07T15:08:49 +0200</time>
      </trkpt>
      <trkpt lat="43.46012" lon="6.88683">
        <ele>66</ele>
        <time>2015-05-07T15:08:51 +0200</time>
      </trkpt>
      <trkpt lat="43.46011" lon="6.88672">
        <ele>67</ele>
        <time>2015-05-07T15:08:57 +0200</time>
      </trkpt>
      <trkpt lat="43.46012" lon="6.88669">
        <ele>66</ele>
        <time>2015-05-07T15:08:59 +0200</time>
      </trkpt>
      <trkpt lat="43.46012" lon="6.8866">
        <ele>66</ele>
        <time>2015-05-07T15:09:03 +0200</time>
      </trkpt>
      <trkpt lat="43.46011" lon="6.88657">
        <ele>66</ele>
        <time>2015-05-07T15:09:05 +0200</time>
      </trkpt>
      <trkpt lat="43.46008" lon="6.8865">
        <ele>67</ele>
        <time>2015-05-07T15:09:09 +0200</time>
      </trkpt>
      <trkpt lat="43.46006" lon="6.88639">
        <ele>66</ele>
        <time>2015-05-07T15:09:15 +0200</time>
      </trkpt>
      <trkpt lat="43.45998" lon="6.88626">
        <ele>65</ele>
        <time>2015-05-07T15:09:24 +0200</time>
      </trkpt>
      <trkpt lat="43.45998" lon="6.88621">
        <ele>65</ele>
        <time>2015-05-07T15:09:26 +0200</time>
      </trkpt>
      <trkpt lat="43.45998" lon="6.88619">
        <ele>66</ele>
        <time>2015-05-07T15:09:28 +0200</time>
      </trkpt>
      <trkpt lat="43.45996" lon="6.88615">
        <ele>65</ele>
        <time>2015-05-07T15:09:31 +0200</time>
      </trkpt>
      <trkpt lat="43.45992" lon="6.88614">
        <ele>65</ele>
        <time>2015-05-07T15:09:33 +0200</time>
      </trkpt>
      <trkpt lat="43.4599" lon="6.88608">
        <ele>68</ele>
        <time>2015-05-07T15:09:37 +0200</time>
      </trkpt>
      <trkpt lat="43.45992" lon="6.88604">
        <ele>70</ele>
        <time>2015-05-07T15:09:39 +0200</time>
      </trkpt>
      <trkpt lat="43.45992" lon="6.886">
        <ele>72</ele>
        <time>2015-05-07T15:09:43 +0200</time>
      </trkpt>
      <trkpt lat="43.45994" lon="6.88598">
        <ele>72</ele>
        <time>2015-05-07T15:09:44 +0200</time>
      </trkpt>
      <trkpt lat="43.45996" lon="6.88582">
        <ele>72</ele>
        <time>2015-05-07T15:09:52 +0200</time>
      </trkpt>
      <trkpt lat="43.45993" lon="6.88573">
        <ele>73</ele>
        <time>2015-05-07T15:09:58 +0200</time>
      </trkpt>
      <trkpt lat="43.45994" lon="6.88564">
        <ele>73</ele>
        <time>2015-05-07T15:10:02 +0200</time>
      </trkpt>
      <trkpt lat="43.45995" lon="6.88562">
        <ele>72</ele>
        <time>2015-05-07T15:10:03 +0200</time>
      </trkpt>
      <trkpt lat="43.45993" lon="6.88559">
        <ele>72</ele>
        <time>2015-05-07T15:10:05 +0200</time>
      </trkpt>
      <trkpt lat="43.45992" lon="6.88556">
        <ele>72</ele>
        <time>2015-05-07T15:10:07 +0200</time>
      </trkpt>
      <trkpt lat="43.45993" lon="6.88554">
        <ele>72</ele>
        <time>2015-05-07T15:10:08 +0200</time>
      </trkpt>
      <trkpt lat="43.45992" lon="6.88539">
        <ele>72</ele>
        <time>2015-05-07T15:10:16 +0200</time>
      </trkpt>
      <trkpt lat="43.4599" lon="6.88537">
        <ele>72</ele>
        <time>2015-05-07T15:10:18 +0200</time>
      </trkpt>
      <trkpt lat="43.45989" lon="6.88533">
        <ele>73</ele>
        <time>2015-05-07T15:10:20 +0200</time>
      </trkpt>
      <trkpt lat="43.4599" lon="6.88529">
        <ele>72</ele>
        <time>2015-05-07T15:10:22 +0200</time>
      </trkpt>
      <trkpt lat="43.45985" lon="6.88512">
        <ele>74</ele>
        <time>2015-05-07T15:10:32 +0200</time>
      </trkpt>
      <trkpt lat="43.45989" lon="6.88496">
        <ele>73</ele>
        <time>2015-05-07T15:10:41 +0200</time>
      </trkpt>
      <trkpt lat="43.4599" lon="6.88494">
        <ele>73</ele>
        <time>2015-05-07T15:10:43 +0200</time>
      </trkpt>
      <trkpt lat="43.45993" lon="6.88494">
        <ele>74</ele>
        <time>2015-05-07T15:10:45 +0200</time>
      </trkpt>
      <trkpt lat="43.46007" lon="6.88473">
        <ele>76</ele>
        <time>2015-05-07T15:11:02 +0200</time>
      </trkpt>
      <trkpt lat="43.4601" lon="6.88475">
        <ele>79</ele>
        <time>2015-05-07T15:11:32 +0200</time>
      </trkpt>
      <trkpt lat="43.46024" lon="6.88488">
        <ele>80</ele>
        <time>2015-05-07T15:11:44 +0200</time>
      </trkpt>
      <trkpt lat="43.46023" lon="6.88492">
        <ele>79</ele>
        <time>2015-05-07T15:11:46 +0200</time>
      </trkpt>
      <trkpt lat="43.46027" lon="6.88497">
        <ele>78</ele>
        <time>2015-05-07T15:11:52 +0200</time>
      </trkpt>
      <trkpt lat="43.46027" lon="6.88501">
        <ele>78</ele>
        <time>2015-05-07T15:11:53 +0200</time>
      </trkpt>
      <trkpt lat="43.46029" lon="6.88503">
        <ele>77</ele>
        <time>2015-05-07T15:11:56 +0200</time>
      </trkpt>
      <trkpt lat="43.46032" lon="6.88499">
        <ele>77</ele>
        <time>2015-05-07T15:11:57 +0200</time>
      </trkpt>
      <trkpt lat="43.46034" lon="6.885">
        <ele>77</ele>
        <time>2015-05-07T15:11:59 +0200</time>
      </trkpt>
      <trkpt lat="43.4604" lon="6.88506">
        <ele>78</ele>
        <time>2015-05-07T15:12:05 +0200</time>
      </trkpt>
      <trkpt lat="43.46045" lon="6.88506">
        <ele>76</ele>
        <time>2015-05-07T15:12:09 +0200</time>
      </trkpt>
      <trkpt lat="43.4605" lon="6.88505">
        <ele>75</ele>
        <time>2015-05-07T15:12:12 +0200</time>
      </trkpt>
      <trkpt lat="43.46053" lon="6.88508">
        <ele>74</ele>
        <time>2015-05-07T15:12:14 +0200</time>
      </trkpt>
      <trkpt lat="43.46059" lon="6.88511">
        <ele>73</ele>
        <time>2015-05-07T15:12:21 +0200</time>
      </trkpt>
      <trkpt lat="43.46063" lon="6.88518">
        <ele>73</ele>
        <time>2015-05-07T15:12:25 +0200</time>
      </trkpt>
      <trkpt lat="43.46069" lon="6.88523">
        <ele>74</ele>
        <time>2015-05-07T15:12:30 +0200</time>
      </trkpt>
      <trkpt lat="43.46071" lon="6.8852">
        <ele>73</ele>
        <time>2015-05-07T15:12:31 +0200</time>
      </trkpt>
      <trkpt lat="43.46081" lon="6.88522">
        <ele>71</ele>
        <time>2015-05-07T15:12:38 +0200</time>
      </trkpt>
      <trkpt lat="43.46084" lon="6.88519">
        <ele>70</ele>
        <time>2015-05-07T15:12:40 +0200</time>
      </trkpt>
      <trkpt lat="43.46093" lon="6.88523">
        <ele>70</ele>
        <time>2015-05-07T15:12:48 +0200</time>
      </trkpt>
      <trkpt lat="43.46097" lon="6.88533">
        <ele>72</ele>
        <time>2015-05-07T15:12:53 +0200</time>
      </trkpt>
      <trkpt lat="43.46099" lon="6.88531">
        <ele>72</ele>
        <time>2015-05-07T15:12:54 +0200</time>
      </trkpt>
      <trkpt lat="43.46102" lon="6.88532">
        <ele>72</ele>
        <time>2015-05-07T15:12:56 +0200</time>
      </trkpt>
      <trkpt lat="43.46105" lon="6.88529">
        <ele>72</ele>
        <time>2015-05-07T15:12:58 +0200</time>
      </trkpt>
      <trkpt lat="43.46108" lon="6.88531">
        <ele>71</ele>
        <time>2015-05-07T15:13:00 +0200</time>
      </trkpt>
      <trkpt lat="43.46113" lon="6.88528">
        <ele>71</ele>
        <time>2015-05-07T15:13:03 +0200</time>
      </trkpt>
      <trkpt lat="43.46119" lon="6.8853">
        <ele>69</ele>
        <time>2015-05-07T15:13:08 +0200</time>
      </trkpt>
      <trkpt lat="43.46128" lon="6.88538">
        <ele>68</ele>
        <time>2015-05-07T15:13:17 +0200</time>
      </trkpt>
      <trkpt lat="43.46132" lon="6.88546">
        <ele>69</ele>
        <time>2015-05-07T15:13:22 +0200</time>
      </trkpt>
      <trkpt lat="43.46136" lon="6.88544">
        <ele>69</ele>
        <time>2015-05-07T15:13:25 +0200</time>
      </trkpt>
      <trkpt lat="43.46163" lon="6.88553">
        <ele>69</ele>
        <time>2015-05-07T15:13:48 +0200</time>
      </trkpt>
      <trkpt lat="43.46169" lon="6.8855">
        <ele>68</ele>
        <time>2015-05-07T15:13:52 +0200</time>
      </trkpt>
      <trkpt lat="43.46173" lon="6.88554">
        <ele>68</ele>
        <time>2015-05-07T15:13:57 +0200</time>
      </trkpt>
      <trkpt lat="43.46183" lon="6.88544">
        <ele>64</ele>
        <time>2015-05-07T15:14:03 +0200</time>
      </trkpt>
      <trkpt lat="43.46187" lon="6.88536">
        <ele>62</ele>
        <time>2015-05-07T15:14:17 +0200</time>
      </trkpt>
      <trkpt lat="43.46184" lon="6.8853">
        <ele>61</ele>
        <time>2015-05-07T15:14:22 +0200</time>
      </trkpt>
      <trkpt lat="43.46181" lon="6.88518">
        <ele>56</ele>
        <time>2015-05-07T15:14:28 +0200</time>
      </trkpt>
      <trkpt lat="43.46147" lon="6.8849">
        <ele>59</ele>
        <time>2015-05-07T15:14:59 +0200</time>
      </trkpt>
      <trkpt lat="43.46145" lon="6.88482">
        <ele>59</ele>
        <time>2015-05-07T15:15:04 +0200</time>
      </trkpt>
      <trkpt lat="43.46121" lon="6.88452">
        <ele>58</ele>
        <time>2015-05-07T15:15:26 +0200</time>
      </trkpt>
      <trkpt lat="43.46116" lon="6.88452">
        <ele>58</ele>
        <time>2015-05-07T15:15:29 +0200</time>
      </trkpt>
      <trkpt lat="43.46112" lon="6.8845">
        <ele>59</ele>
        <time>2015-05-07T15:15:32 +0200</time>
      </trkpt>
      <trkpt lat="43.46107" lon="6.8845">
        <ele>63</ele>
        <time>2015-05-07T15:15:37 +0200</time>
      </trkpt>
      <trkpt lat="43.46099" lon="6.88445">
        <ele>64</ele>
        <time>2015-05-07T15:15:44 +0200</time>
      </trkpt>
      <trkpt lat="43.4609" lon="6.88445">
        <ele>61</ele>
        <time>2015-05-07T15:15:51 +0200</time>
      </trkpt>
      <trkpt lat="43.46086" lon="6.88441">
        <ele>60</ele>
        <time>2015-05-07T15:15:55 +0200</time>
      </trkpt>
      <trkpt lat="43.46065" lon="6.88398">
        <ele>63</ele>
        <time>2015-05-07T15:16:26 +0200</time>
      </trkpt>
      <trkpt lat="43.46059" lon="6.884">
        <ele>62</ele>
        <time>2015-05-07T15:16:33 +0200</time>
      </trkpt>
      <trkpt lat="43.46051" lon="6.88379">
        <ele>65</ele>
        <time>2015-05-07T15:16:45 +0200</time>
      </trkpt>
      <trkpt lat="43.46046" lon="6.88381">
        <ele>67</ele>
        <time>2015-05-07T15:16:48 +0200</time>
      </trkpt>
      <trkpt lat="43.46032" lon="6.88384">
        <ele>66</ele>
        <time>2015-05-07T15:16:57 +0200</time>
      </trkpt>
      <trkpt lat="43.46028" lon="6.88381">
        <ele>63</ele>
        <time>2015-05-07T15:17:01 +0200</time>
      </trkpt>
      <trkpt lat="43.46026" lon="6.88383">
        <ele>64</ele>
        <time>2015-05-07T15:17:02 +0200</time>
      </trkpt>
      <trkpt lat="43.46023" lon="6.88385">
        <ele>64</ele>
        <time>2015-05-07T15:17:06 +0200</time>
      </trkpt>
      <trkpt lat="43.4602" lon="6.88384">
        <ele>66</ele>
        <time>2015-05-07T15:17:07 +0200</time>
      </trkpt>
      <trkpt lat="43.46014" lon="6.88381">
        <ele>67</ele>
        <time>2015-05-07T15:17:11 +0200</time>
      </trkpt>
      <trkpt lat="43.46012" lon="6.88382">
        <ele>67</ele>
        <time>2015-05-07T15:17:13 +0200</time>
      </trkpt>
      <trkpt lat="43.4601" lon="6.8838">
        <ele>67</ele>
        <time>2015-05-07T15:17:15 +0200</time>
      </trkpt>
      <trkpt lat="43.46005" lon="6.88378">
        <ele>67</ele>
        <time>2015-05-07T15:17:19 +0200</time>
      </trkpt>
      <trkpt lat="43.46004" lon="6.88374">
        <ele>66</ele>
        <time>2015-05-07T15:17:21 +0200</time>
      </trkpt>
      <trkpt lat="43.46" lon="6.88372">
        <ele>66</ele>
        <time>2015-05-07T15:17:23 +0200</time>
      </trkpt>
      <trkpt lat="43.45999" lon="6.88369">
        <ele>65</ele>
        <time>2015-05-07T15:17:25 +0200</time>
      </trkpt>
      <trkpt lat="43.45992" lon="6.88365">
        <ele>65</ele>
        <time>2015-05-07T15:17:30 +0200</time>
      </trkpt>
      <trkpt lat="43.45992" lon="6.88363">
        <ele>64</ele>
        <time>2015-05-07T15:17:31 +0200</time>
      </trkpt>
      <trkpt lat="43.4599" lon="6.88363">
        <ele>64</ele>
        <time>2015-05-07T15:17:33 +0200</time>
      </trkpt>
      <trkpt lat="43.45987" lon="6.88362">
        <ele>64</ele>
        <time>2015-05-07T15:17:35 +0200</time>
      </trkpt>
      <trkpt lat="43.45986" lon="6.88362">
        <ele>64</ele>
        <time>2015-05-07T15:17:36 +0200</time>
      </trkpt>
      <trkpt lat="43.45984" lon="6.88359">
        <ele>64</ele>
        <time>2015-05-07T15:17:38 +0200</time>
      </trkpt>
      <trkpt lat="43.45983" lon="6.88352">
        <ele>64</ele>
        <time>2015-05-07T15:17:41 +0200</time>
      </trkpt>
      <trkpt lat="43.45983" lon="6.88341">
        <ele>65</ele>
        <time>2015-05-07T15:17:49 +0200</time>
      </trkpt>
      <trkpt lat="43.45986" lon="6.88323">
        <ele>64</ele>
        <time>2015-05-07T15:18:01 +0200</time>
      </trkpt>
      <trkpt lat="43.45985" lon="6.88321">
        <ele>64</ele>
        <time>2015-05-07T15:18:02 +0200</time>
      </trkpt>
      <trkpt lat="43.45986" lon="6.88315">
        <ele>64</ele>
        <time>2015-05-07T15:18:06 +0200</time>
      </trkpt>
      <trkpt lat="43.45988" lon="6.88312">
        <ele>64</ele>
        <time>2015-05-07T15:18:08 +0200</time>
      </trkpt>
      <trkpt lat="43.45989" lon="6.88289">
        <ele>67</ele>
        <time>2015-05-07T15:18:21 +0200</time>
      </trkpt>
      <trkpt lat="43.45988" lon="6.88287">
        <ele>67</ele>
        <time>2015-05-07T15:18:23 +0200</time>
      </trkpt>
      <trkpt lat="43.45988" lon="6.88284">
        <ele>67</ele>
        <time>2015-05-07T15:18:25 +0200</time>
      </trkpt>
      <trkpt lat="43.4599" lon="6.88274">
        <ele>65</ele>
        <time>2015-05-07T15:18:31 +0200</time>
      </trkpt>
      <trkpt lat="43.45989" lon="6.88268">
        <ele>65</ele>
        <time>2015-05-07T15:18:35 +0200</time>
      </trkpt>
      <trkpt lat="43.4599" lon="6.88265">
        <ele>65</ele>
        <time>2015-05-07T15:18:37 +0200</time>
      </trkpt>
      <trkpt lat="43.4599" lon="6.88263">
        <ele>65</ele>
        <time>2015-05-07T15:18:38 +0200</time>
      </trkpt>
      <trkpt lat="43.4599" lon="6.8826">
        <ele>65</ele>
        <time>2015-05-07T15:18:39 +0200</time>
      </trkpt>
      <trkpt lat="43.4599" lon="6.8825">
        <ele>65</ele>
        <time>2015-05-07T15:18:44 +0200</time>
      </trkpt>
      <trkpt lat="43.45992" lon="6.88241">
        <ele>63</ele>
        <time>2015-05-07T15:18:49 +0200</time>
      </trkpt>
      <trkpt lat="43.45992" lon="6.88239">
        <ele>61</ele>
        <time>2015-05-07T15:18:51 +0200</time>
      </trkpt>
      <trkpt lat="43.45993" lon="6.88237">
        <ele>61</ele>
        <time>2015-05-07T15:18:52 +0200</time>
      </trkpt>
      <trkpt lat="43.45993" lon="6.88234">
        <ele>59</ele>
        <time>2015-05-07T15:18:55 +0200</time>
      </trkpt>
      <trkpt lat="43.45992" lon="6.8823">
        <ele>58</ele>
        <time>2015-05-07T15:18:57 +0200</time>
      </trkpt>
      <trkpt lat="43.4599" lon="6.88216">
        <ele>57</ele>
        <time>2015-05-07T15:19:05 +0200</time>
      </trkpt>
      <trkpt lat="43.4599" lon="6.88208">
        <ele>57</ele>
        <time>2015-05-07T15:19:09 +0200</time>
      </trkpt>
      <trkpt lat="43.45986" lon="6.88192">
        <ele>59</ele>
        <time>2015-05-07T15:19:18 +0200</time>
      </trkpt>
      <trkpt lat="43.4599" lon="6.88139">
        <ele>60</ele>
        <time>2015-05-07T15:19:48 +0200</time>
      </trkpt>
      <trkpt lat="43.45991" lon="6.88084">
        <ele>54</ele>
        <time>2015-05-07T15:20:19 +0200</time>
      </trkpt>
      <trkpt lat="43.4599" lon="6.88076">
        <ele>54</ele>
        <time>2015-05-07T15:20:24 +0200</time>
      </trkpt>
      <trkpt lat="43.4599" lon="6.88023">
        <ele>53</ele>
        <time>2015-05-07T15:20:54 +0200</time>
      </trkpt>
      <trkpt lat="43.45991" lon="6.8802">
        <ele>52</ele>
        <time>2015-05-07T15:20:57 +0200</time>
      </trkpt>
      <trkpt lat="43.45991" lon="6.88018">
        <ele>51</ele>
        <time>2015-05-07T15:20:58 +0200</time>
      </trkpt>
      <trkpt lat="43.45993" lon="6.88011">
        <ele>50</ele>
        <time>2015-05-07T15:21:02 +0200</time>
      </trkpt>
      <trkpt lat="43.45995" lon="6.87984">
        <ele>49</ele>
        <time>2015-05-07T15:21:17 +0200</time>
      </trkpt>
      <trkpt lat="43.46" lon="6.87978">
        <ele>49</ele>
        <time>2015-05-07T15:21:21 +0200</time>
      </trkpt>
      <trkpt lat="43.46003" lon="6.87977">
        <ele>48</ele>
        <time>2015-05-07T15:21:23 +0200</time>
      </trkpt>
      <trkpt lat="43.46006" lon="6.87975">
        <ele>47</ele>
        <time>2015-05-07T15:21:32 +0200</time>
      </trkpt>
      <trkpt lat="43.46037" lon="6.87979">
        <ele>45</ele>
        <time>2015-05-07T15:22:03 +0200</time>
      </trkpt>
      <trkpt lat="43.46074" lon="6.87968">
        <ele>41</ele>
        <time>2015-05-07T15:22:34 +0200</time>
      </trkpt>
      <trkpt lat="43.46094" lon="6.87947">
        <ele>38</ele>
        <time>2015-05-07T15:22:55 +0200</time>
      </trkpt>
      <trkpt lat="43.46095" lon="6.87945">
        <ele>38</ele>
        <time>2015-05-07T15:22:57 +0200</time>
      </trkpt>
      <trkpt lat="43.4612" lon="6.87909">
        <ele>34</ele>
        <time>2015-05-07T15:23:27 +0200</time>
      </trkpt>
      <trkpt lat="43.46125" lon="6.8789">
        <ele>34</ele>
        <time>2015-05-07T15:23:39 +0200</time>
      </trkpt>
      <trkpt lat="43.46129" lon="6.87886">
        <ele>33</ele>
        <time>2015-05-07T15:23:43 +0200</time>
      </trkpt>
      <trkpt lat="43.46149" lon="6.87842">
        <ele>27</ele>
        <time>2015-05-07T15:24:14 +0200</time>
      </trkpt>
      <trkpt lat="43.46159" lon="6.8782">
        <ele>25</ele>
        <time>2015-05-07T15:24:29 +0200</time>
      </trkpt>
      <trkpt lat="43.46164" lon="6.8782">
        <ele>24</ele>
        <time>2015-05-07T15:26:21 +0200</time>
      </trkpt>
      <trkpt lat="43.46197" lon="6.87803">
        <ele>26</ele>
        <time>2015-05-07T15:26:52 +0200</time>
      </trkpt>
      <trkpt lat="43.46234" lon="6.87783">
        <ele>28</ele>
        <time>2015-05-07T15:27:24 +0200</time>
      </trkpt>
      <trkpt lat="43.46269" lon="6.87761">
        <ele>29</ele>
        <time>2015-05-07T15:27:54 +0200</time>
      </trkpt>
      <trkpt lat="43.46268" lon="6.87767">
        <ele>29</ele>
        <time>2015-05-07T15:33:59 +0200</time>
      </trkpt>
      <trkpt lat="43.46263" lon="6.87769">
        <ele>29</ele>
        <time>2015-05-07T15:34:03 +0200</time>
      </trkpt>
      <trkpt lat="43.46256" lon="6.87776">
        <ele>28</ele>
        <time>2015-05-07T15:34:10 +0200</time>
      </trkpt>
      <trkpt lat="43.46251" lon="6.87776">
        <ele>27</ele>
        <time>2015-05-07T15:34:13 +0200</time>
      </trkpt>
      <trkpt lat="43.46212" lon="6.87799">
        <ele>27</ele>
        <time>2015-05-07T15:34:44 +0200</time>
      </trkpt>
      <trkpt lat="43.46206" lon="6.87807">
        <ele>28</ele>
        <time>2015-05-07T15:34:50 +0200</time>
      </trkpt>
      <trkpt lat="43.46172" lon="6.87817">
        <ele>22</ele>
        <time>2015-05-07T15:35:15 +0200</time>
      </trkpt>
      <trkpt lat="43.46156" lon="6.87829">
        <ele>24</ele>
        <time>2015-05-07T15:35:29 +0200</time>
      </trkpt>
      <trkpt lat="43.46153" lon="6.87842">
        <ele>24</ele>
        <time>2015-05-07T15:35:37 +0200</time>
      </trkpt>
      <trkpt lat="43.46144" lon="6.87853">
        <ele>25</ele>
        <time>2015-05-07T15:35:48 +0200</time>
      </trkpt>
      <trkpt lat="43.46146" lon="6.87853">
        <ele>26</ele>
        <time>2015-05-07T15:35:54 +0200</time>
      </trkpt>
      <trkpt lat="43.46146" lon="6.87865">
        <ele>25</ele>
        <time>2015-05-07T15:36:29 +0200</time>
      </trkpt>
      <trkpt lat="43.46148" lon="6.87869">
        <ele>17</ele>
        <time>2015-05-07T15:36:32 +0200</time>
      </trkpt>
      <trkpt lat="43.46146" lon="6.87871">
        <ele>19</ele>
        <time>2015-05-07T15:36:35 +0200</time>
      </trkpt>
      <trkpt lat="43.46147" lon="6.87875">
        <ele>21</ele>
        <time>2015-05-07T15:36:45 +0200</time>
      </trkpt>
      <trkpt lat="43.46147" lon="6.87879">
        <ele>26</ele>
        <time>2015-05-07T15:36:53 +0200</time>
      </trkpt>
      <trkpt lat="43.46136" lon="6.87921">
        <ele>24</ele>
        <time>2015-05-07T15:37:24 +0200</time>
      </trkpt>
      <trkpt lat="43.46134" lon="6.87927">
        <ele>24</ele>
        <time>2015-05-07T15:37:27 +0200</time>
      </trkpt>
      <trkpt lat="43.46138" lon="6.87947">
        <ele>22</ele>
        <time>2015-05-07T15:37:38 +0200</time>
      </trkpt>
      <trkpt lat="43.46133" lon="6.87948">
        <ele>20</ele>
        <time>2015-05-07T15:37:43 +0200</time>
      </trkpt>
      <trkpt lat="43.46129" lon="6.87953">
        <ele>21</ele>
        <time>2015-05-07T15:37:50 +0200</time>
      </trkpt>
      <trkpt lat="43.46128" lon="6.87956">
        <ele>22</ele>
        <time>2015-05-07T15:37:53 +0200</time>
      </trkpt>
      <trkpt lat="43.46129" lon="6.87961">
        <ele>21</ele>
        <time>2015-05-07T15:37:55 +0200</time>
      </trkpt>
      <trkpt lat="43.46126" lon="6.87963">
        <ele>20</ele>
        <time>2015-05-07T15:37:58 +0200</time>
      </trkpt>
      <trkpt lat="43.46127" lon="6.87967">
        <ele>20</ele>
        <time>2015-05-07T15:38:01 +0200</time>
      </trkpt>
      <trkpt lat="43.46127" lon="6.87972">
        <ele>17</ele>
        <time>2015-05-07T15:38:05 +0200</time>
      </trkpt>
      <trkpt lat="43.46125" lon="6.87976">
        <ele>18</ele>
        <time>2015-05-07T15:38:09 +0200</time>
      </trkpt>
      <trkpt lat="43.46121" lon="6.87977">
        <ele>28</ele>
        <time>2015-05-07T15:38:47 +0200</time>
      </trkpt>
      <trkpt lat="43.46123" lon="6.8798">
        <ele>29</ele>
        <time>2015-05-07T15:38:55 +0200</time>
      </trkpt>
      <trkpt lat="43.4612" lon="6.87984">
        <ele>30</ele>
        <time>2015-05-07T15:38:58 +0200</time>
      </trkpt>
      <trkpt lat="43.46117" lon="6.87987">
        <ele>34</ele>
        <time>2015-05-07T15:39:02 +0200</time>
      </trkpt>
      <trkpt lat="43.46114" lon="6.87986">
        <ele>36</ele>
        <time>2015-05-07T15:39:03 +0200</time>
      </trkpt>
      <trkpt lat="43.46111" lon="6.87985">
        <ele>39</ele>
        <time>2015-05-07T15:39:05 +0200</time>
      </trkpt>
      <trkpt lat="43.46107" lon="6.87985">
        <ele>43</ele>
        <time>2015-05-07T15:39:07 +0200</time>
      </trkpt>
      <trkpt lat="43.46102" lon="6.87984">
        <ele>45</ele>
        <time>2015-05-07T15:39:11 +0200</time>
      </trkpt>
      <trkpt lat="43.46099" lon="6.87983">
        <ele>50</ele>
        <time>2015-05-07T15:39:14 +0200</time>
      </trkpt>
      <trkpt lat="43.46098" lon="6.87985">
        <ele>51</ele>
        <time>2015-05-07T15:39:16 +0200</time>
      </trkpt>
      <trkpt lat="43.46099" lon="6.87989">
        <ele>51</ele>
        <time>2015-05-07T15:39:18 +0200</time>
      </trkpt>
      <trkpt lat="43.46096" lon="6.87991">
        <ele>51</ele>
        <time>2015-05-07T15:39:23 +0200</time>
      </trkpt>
      <trkpt lat="43.46094" lon="6.87992">
        <ele>52</ele>
        <time>2015-05-07T15:39:26 +0200</time>
      </trkpt>
      <trkpt lat="43.46091" lon="6.87993">
        <ele>54</ele>
        <time>2015-05-07T15:39:29 +0200</time>
      </trkpt>
      <trkpt lat="43.46083" lon="6.87997">
        <ele>56</ele>
        <time>2015-05-07T15:39:40 +0200</time>
      </trkpt>
      <trkpt lat="43.4608" lon="6.87996">
        <ele>57</ele>
        <time>2015-05-07T15:39:43 +0200</time>
      </trkpt>
      <trkpt lat="43.46079" lon="6.88001">
        <ele>57</ele>
        <time>2015-05-07T15:39:45 +0200</time>
      </trkpt>
      <trkpt lat="43.46077" lon="6.88002">
        <ele>58</ele>
        <time>2015-05-07T15:39:47 +0200</time>
      </trkpt>
      <trkpt lat="43.46075" lon="6.88005">
        <ele>60</ele>
        <time>2015-05-07T15:39:49 +0200</time>
      </trkpt>
      <trkpt lat="43.46074" lon="6.88008">
        <ele>60</ele>
        <time>2015-05-07T15:39:53 +0200</time>
      </trkpt>
      <trkpt lat="43.46081" lon="6.88009">
        <ele>60</ele>
        <time>2015-05-07T15:40:02 +0200</time>
      </trkpt>
      <trkpt lat="43.46083" lon="6.8801">
        <ele>60</ele>
        <time>2015-05-07T15:40:05 +0200</time>
      </trkpt>
      <trkpt lat="43.46085" lon="6.88008">
        <ele>60</ele>
        <time>2015-05-07T15:40:08 +0200</time>
      </trkpt>
      <trkpt lat="43.4609" lon="6.88012">
        <ele>62</ele>
        <time>2015-05-07T15:40:16 +0200</time>
      </trkpt>
      <trkpt lat="43.46098" lon="6.88011">
        <ele>66</ele>
        <time>2015-05-07T15:40:24 +0200</time>
      </trkpt>
      <trkpt lat="43.461" lon="6.88009">
        <ele>66</ele>
        <time>2015-05-07T15:40:28 +0200</time>
      </trkpt>
      <trkpt lat="43.46103" lon="6.88008">
        <ele>67</ele>
        <time>2015-05-07T15:40:31 +0200</time>
      </trkpt>
      <trkpt lat="43.46105" lon="6.88012">
        <ele>67</ele>
        <time>2015-05-07T15:40:32 +0200</time>
      </trkpt>
      <trkpt lat="43.46109" lon="6.88011">
        <ele>68</ele>
        <time>2015-05-07T15:41:06 +0200</time>
      </trkpt>
      <trkpt lat="43.46114" lon="6.88013">
        <ele>68</ele>
        <time>2015-05-07T15:41:35 +0200</time>
      </trkpt>
      <trkpt lat="43.46123" lon="6.88005">
        <ele>68</ele>
        <time>2015-05-07T15:41:42 +0200</time>
      </trkpt>
      <trkpt lat="43.46128" lon="6.88002">
        <ele>71</ele>
        <time>2015-05-07T15:41:46 +0200</time>
      </trkpt>
      <trkpt lat="43.46133" lon="6.88005">
        <ele>71</ele>
        <time>2015-05-07T15:41:51 +0200</time>
      </trkpt>
      <trkpt lat="43.46142" lon="6.87999">
        <ele>70</ele>
        <time>2015-05-07T15:42:02 +0200</time>
      </trkpt>
      <trkpt lat="43.46144" lon="6.87993">
        <ele>73</ele>
        <time>2015-05-07T15:42:05 +0200</time>
      </trkpt>
      <trkpt lat="43.46146" lon="6.87992">
        <ele>74</ele>
        <time>2015-05-07T15:42:07 +0200</time>
      </trkpt>
      <trkpt lat="43.46147" lon="6.87989">
        <ele>74</ele>
        <time>2015-05-07T15:42:10 +0200</time>
      </trkpt>
      <trkpt lat="43.46152" lon="6.87988">
        <ele>74</ele>
        <time>2015-05-07T15:42:15 +0200</time>
      </trkpt>
      <trkpt lat="43.46159" lon="6.87983">
        <ele>75</ele>
        <time>2015-05-07T15:42:21 +0200</time>
      </trkpt>
      <trkpt lat="43.46161" lon="6.87978">
        <ele>75</ele>
        <time>2015-05-07T15:42:25 +0200</time>
      </trkpt>
      <trkpt lat="43.46164" lon="6.8798">
        <ele>75</ele>
        <time>2015-05-07T15:42:30 +0200</time>
      </trkpt>
      <trkpt lat="43.46169" lon="6.87973">
        <ele>76</ele>
        <time>2015-05-07T15:42:36 +0200</time>
      </trkpt>
      <trkpt lat="43.46172" lon="6.87969">
        <ele>77</ele>
        <time>2015-05-07T15:42:40 +0200</time>
      </trkpt>
      <trkpt lat="43.46175" lon="6.87968">
        <ele>76</ele>
        <time>2015-05-07T15:42:44 +0200</time>
      </trkpt>
      <trkpt lat="43.46179" lon="6.87971">
        <ele>74</ele>
        <time>2015-05-07T15:42:47 +0200</time>
      </trkpt>
      <trkpt lat="43.46182" lon="6.87969">
        <ele>73</ele>
        <time>2015-05-07T15:42:49 +0200</time>
      </trkpt>
      <trkpt lat="43.46185" lon="6.87967">
        <ele>73</ele>
        <time>2015-05-07T15:42:52 +0200</time>
      </trkpt>
      <trkpt lat="43.46187" lon="6.87971">
        <ele>72</ele>
        <time>2015-05-07T15:42:53 +0200</time>
      </trkpt>
      <trkpt lat="43.46188" lon="6.87968">
        <ele>72</ele>
        <time>2015-05-07T15:42:57 +0200</time>
      </trkpt>
      <trkpt lat="43.46199" lon="6.87958">
        <ele>75</ele>
        <time>2015-05-07T15:43:11 +0200</time>
      </trkpt>
      <trkpt lat="43.462" lon="6.87953">
        <ele>77</ele>
        <time>2015-05-07T15:43:50 +0200</time>
      </trkpt>
      <trkpt lat="43.46202" lon="6.87954">
        <ele>77</ele>
        <time>2015-05-07T15:43:52 +0200</time>
      </trkpt>
      <trkpt lat="43.46203" lon="6.87951">
        <ele>78</ele>
        <time>2015-05-07T15:43:55 +0200</time>
      </trkpt>
      <trkpt lat="43.46206" lon="6.8795">
        <ele>81</ele>
        <time>2015-05-07T15:43:59 +0200</time>
      </trkpt>
      <trkpt lat="43.46208" lon="6.87947">
        <ele>81</ele>
        <time>2015-05-07T15:44:01 +0200</time>
      </trkpt>
      <trkpt lat="43.46214" lon="6.87948">
        <ele>82</ele>
        <time>2015-05-07T15:44:06 +0200</time>
      </trkpt>
      <trkpt lat="43.46225" lon="6.87941">
        <ele>88</ele>
        <time>2015-05-07T15:44:19 +0200</time>
      </trkpt>
      <trkpt lat="43.46227" lon="6.87942">
        <ele>88</ele>
        <time>2015-05-07T15:44:20 +0200</time>
      </trkpt>
      <trkpt lat="43.46233" lon="6.87946">
        <ele>89</ele>
        <time>2015-05-07T15:44:25 +0200</time>
      </trkpt>
      <trkpt lat="43.46236" lon="6.87945">
        <ele>90</ele>
        <time>2015-05-07T15:44:29 +0200</time>
      </trkpt>
      <trkpt lat="43.46242" lon="6.87946">
        <ele>90</ele>
        <time>2015-05-07T15:44:35 +0200</time>
      </trkpt>
      <trkpt lat="43.46243" lon="6.87943">
        <ele>90</ele>
        <time>2015-05-07T15:44:36 +0200</time>
      </trkpt>
      <trkpt lat="43.46251" lon="6.87937">
        <ele>92</ele>
        <time>2015-05-07T15:44:50 +0200</time>
      </trkpt>
      <trkpt lat="43.46252" lon="6.87934">
        <ele>96</ele>
        <time>2015-05-07T15:44:52 +0200</time>
      </trkpt>
      <trkpt lat="43.46254" lon="6.87935">
        <ele>97</ele>
        <time>2015-05-07T15:44:55 +0200</time>
      </trkpt>
      <trkpt lat="43.4626" lon="6.87939">
        <ele>97</ele>
        <time>2015-05-07T15:45:00 +0200</time>
      </trkpt>
      <trkpt lat="43.46276" lon="6.87933">
        <ele>92</ele>
        <time>2015-05-07T15:45:15 +0200</time>
      </trkpt>
      <trkpt lat="43.46275" lon="6.87931">
        <ele>94</ele>
        <time>2015-05-07T15:45:18 +0200</time>
      </trkpt>
      <trkpt lat="43.46276" lon="6.87928">
        <ele>95</ele>
        <time>2015-05-07T15:45:20 +0200</time>
      </trkpt>
      <trkpt lat="43.46279" lon="6.87927">
        <ele>98</ele>
        <time>2015-05-07T15:46:10 +0200</time>
      </trkpt>
      <trkpt lat="43.46282" lon="6.87922">
        <ele>98</ele>
        <time>2015-05-07T15:46:14 +0200</time>
      </trkpt>
      <trkpt lat="43.46285" lon="6.87922">
        <ele>99</ele>
        <time>2015-05-07T15:46:17 +0200</time>
      </trkpt>
      <trkpt lat="43.46292" lon="6.87921">
        <ele>105</ele>
        <time>2015-05-07T15:46:23 +0200</time>
      </trkpt>
      <trkpt lat="43.46298" lon="6.87917">
        <ele>105</ele>
        <time>2015-05-07T15:46:32 +0200</time>
      </trkpt>
      <trkpt lat="43.46301" lon="6.87917">
        <ele>105</ele>
        <time>2015-05-07T15:46:34 +0200</time>
      </trkpt>
      <trkpt lat="43.46305" lon="6.87915">
        <ele>104</ele>
        <time>2015-05-07T15:46:39 +0200</time>
      </trkpt>
      <trkpt lat="43.46305" lon="6.87911">
        <ele>106</ele>
        <time>2015-05-07T15:46:42 +0200</time>
      </trkpt>
      <trkpt lat="43.46307" lon="6.87907">
        <ele>106</ele>
        <time>2015-05-07T15:46:44 +0200</time>
      </trkpt>
      <trkpt lat="43.46314" lon="6.87908">
        <ele>107</ele>
        <time>2015-05-07T15:46:48 +0200</time>
      </trkpt>
      <trkpt lat="43.46317" lon="6.87909">
        <ele>105</ele>
        <time>2015-05-07T15:46:50 +0200</time>
      </trkpt>
      <trkpt lat="43.4632" lon="6.87907">
        <ele>105</ele>
        <time>2015-05-07T15:46:54 +0200</time>
      </trkpt>
      <trkpt lat="43.46324" lon="6.87908">
        <ele>106</ele>
        <time>2015-05-07T15:46:57 +0200</time>
      </trkpt>
      <trkpt lat="43.46326" lon="6.879">
        <ele>108</ele>
        <time>2015-05-07T15:47:01 +0200</time>
      </trkpt>
      <trkpt lat="43.4633" lon="6.879">
        <ele>110</ele>
        <time>2015-05-07T15:47:50 +0200</time>
      </trkpt>
      <trkpt lat="43.46332" lon="6.87899">
        <ele>110</ele>
        <time>2015-05-07T15:47:51 +0200</time>
      </trkpt>
      <trkpt lat="43.46341" lon="6.87899">
        <ele>115</ele>
        <time>2015-05-07T15:48:03 +0200</time>
      </trkpt>
      <trkpt lat="43.46344" lon="6.87898">
        <ele>117</ele>
        <time>2015-05-07T15:48:06 +0200</time>
      </trkpt>
      <trkpt lat="43.4635" lon="6.87899">
        <ele>118</ele>
        <time>2015-05-07T15:48:10 +0200</time>
      </trkpt>
      <trkpt lat="43.46352" lon="6.87896">
        <ele>118</ele>
        <time>2015-05-07T15:48:13 +0200</time>
      </trkpt>
      <trkpt lat="43.46355" lon="6.87899">
        <ele>117</ele>
        <time>2015-05-07T15:48:14 +0200</time>
      </trkpt>
      <trkpt lat="43.46363" lon="6.87894">
        <ele>117</ele>
        <time>2015-05-07T15:48:21 +0200</time>
      </trkpt>
      <trkpt lat="43.46365" lon="6.87893">
        <ele>119</ele>
        <time>2015-05-07T15:48:24 +0200</time>
      </trkpt>
      <trkpt lat="43.46367" lon="6.87894">
        <ele>119</ele>
        <time>2015-05-07T15:48:28 +0200</time>
      </trkpt>
      <trkpt lat="43.46369" lon="6.87892">
        <ele>119</ele>
        <time>2015-05-07T15:48:31 +0200</time>
      </trkpt>
      <trkpt lat="43.46371" lon="6.87892">
        <ele>118</ele>
        <time>2015-05-07T15:48:32 +0200</time>
      </trkpt>
      <trkpt lat="43.46375" lon="6.87886">
        <ele>119</ele>
        <time>2015-05-07T15:48:37 +0200</time>
      </trkpt>
      <trkpt lat="43.46378" lon="6.87885">
        <ele>122</ele>
        <time>2015-05-07T15:48:42 +0200</time>
      </trkpt>
      <trkpt lat="43.4638" lon="6.87887">
        <ele>123</ele>
        <time>2015-05-07T15:48:45 +0200</time>
      </trkpt>
      <trkpt lat="43.46384" lon="6.87887">
        <ele>124</ele>
        <time>2015-05-07T15:48:50 +0200</time>
      </trkpt>
      <trkpt lat="43.46388" lon="6.87887">
        <ele>126</ele>
        <time>2015-05-07T15:48:54 +0200</time>
      </trkpt>
      <trkpt lat="43.4639" lon="6.87892">
        <ele>126</ele>
        <time>2015-05-07T15:48:55 +0200</time>
      </trkpt>
      <trkpt lat="43.46392" lon="6.87891">
        <ele>126</ele>
        <time>2015-05-07T15:48:56 +0200</time>
      </trkpt>
      <trkpt lat="43.46393" lon="6.8789">
        <ele>128</ele>
        <time>2015-05-07T15:51:09 +0200</time>
      </trkpt>
      <trkpt lat="43.46396" lon="6.87893">
        <ele>129</ele>
        <time>2015-05-07T15:51:42 +0200</time>
      </trkpt>
      <trkpt lat="43.464" lon="6.87897">
        <ele>129</ele>
        <time>2015-05-07T15:51:46 +0200</time>
      </trkpt>
      <trkpt lat="43.46402" lon="6.879">
        <ele>131</ele>
        <time>2015-05-07T15:51:48 +0200</time>
      </trkpt>
      <trkpt lat="43.46403" lon="6.87901">
        <ele>132</ele>
        <time>2015-05-07T15:51:51 +0200</time>
      </trkpt>
      <trkpt lat="43.46405" lon="6.87902">
        <ele>132</ele>
        <time>2015-05-07T15:51:53 +0200</time>
      </trkpt>
      <trkpt lat="43.46407" lon="6.87903">
        <ele>132</ele>
        <time>2015-05-07T15:51:56 +0200</time>
      </trkpt>
      <trkpt lat="43.46409" lon="6.87907">
        <ele>134</ele>
        <time>2015-05-07T15:52:02 +0200</time>
      </trkpt>
      <trkpt lat="43.4641" lon="6.8791">
        <ele>134</ele>
        <time>2015-05-07T15:52:04 +0200</time>
      </trkpt>
      <trkpt lat="43.46414" lon="6.87912">
        <ele>134</ele>
        <time>2015-05-07T15:52:08 +0200</time>
      </trkpt>
      <trkpt lat="43.46413" lon="6.87916">
        <ele>134</ele>
        <time>2015-05-07T15:52:10 +0200</time>
      </trkpt>
      <trkpt lat="43.46417" lon="6.8792">
        <ele>133</ele>
        <time>2015-05-07T15:52:14 +0200</time>
      </trkpt>
      <trkpt lat="43.46418" lon="6.87922">
        <ele>133</ele>
        <time>2015-05-07T15:52:17 +0200</time>
      </trkpt>
      <trkpt lat="43.46421" lon="6.87926">
        <ele>132</ele>
        <time>2015-05-07T15:52:21 +0200</time>
      </trkpt>
      <trkpt lat="43.46422" lon="6.87929">
        <ele>132</ele>
        <time>2015-05-07T15:52:22 +0200</time>
      </trkpt>
      <trkpt lat="43.46424" lon="6.87929">
        <ele>131</ele>
        <time>2015-05-07T15:52:29 +0200</time>
      </trkpt>
      <trkpt lat="43.4643" lon="6.87946">
        <ele>134</ele>
        <time>2015-05-07T15:52:47 +0200</time>
      </trkpt>
      <trkpt lat="43.46434" lon="6.87964">
        <ele>140</ele>
        <time>2015-05-07T15:53:01 +0200</time>
      </trkpt>
      <trkpt lat="43.4644" lon="6.87994">
        <ele>140</ele>
        <time>2015-05-07T15:53:27 +0200</time>
      </trkpt>
      <trkpt lat="43.46442" lon="6.88001">
        <ele>144</ele>
        <time>2015-05-07T15:53:41 +0200</time>
      </trkpt>
      <trkpt lat="43.46446" lon="6.88012">
        <ele>149</ele>
        <time>2015-05-07T15:55:57 +0200</time>
      </trkpt>
      <trkpt lat="43.46444" lon="6.88019">
        <ele>149</ele>
        <time>2015-05-07T15:56:08 +0200</time>
      </trkpt>
      <trkpt lat="43.46448" lon="6.88024">
        <ele>151</ele>
        <time>2015-05-07T15:56:11 +0200</time>
      </trkpt>
      <trkpt lat="43.46453" lon="6.8806">
        <ele>151</ele>
        <time>2015-05-07T15:56:46 +0200</time>
      </trkpt>
      <trkpt lat="43.46462" lon="6.88087">
        <ele>159</ele>
        <time>2015-05-07T15:57:11 +0200</time>
      </trkpt>
      <trkpt lat="43.46463" lon="6.88098">
        <ele>168</ele>
        <time>2015-05-07T15:57:33 +0200</time>
      </trkpt>
      <trkpt lat="43.46461" lon="6.88108">
        <ele>167</ele>
        <time>2015-05-07T15:57:38 +0200</time>
      </trkpt>
      <trkpt lat="43.46464" lon="6.88112">
        <ele>166</ele>
        <time>2015-05-07T15:58:42 +0200</time>
      </trkpt>
      <trkpt lat="43.46465" lon="6.8812">
        <ele>166</ele>
        <time>2015-05-07T15:58:47 +0200</time>
      </trkpt>
      <trkpt lat="43.46471" lon="6.88131">
        <ele>169</ele>
        <time>2015-05-07T15:58:58 +0200</time>
      </trkpt>
      <trkpt lat="43.46472" lon="6.88137">
        <ele>172</ele>
        <time>2015-05-07T15:59:09 +0200</time>
      </trkpt>
      <trkpt lat="43.46473" lon="6.88144">
        <ele>174</ele>
        <time>2015-05-07T15:59:13 +0200</time>
      </trkpt>
      <trkpt lat="43.46493" lon="6.88173">
        <ele>174</ele>
        <time>2015-05-07T15:59:54 +0200</time>
      </trkpt>
      <trkpt lat="43.46513" lon="6.88189">
        <ele>175</ele>
        <time>2015-05-07T16:00:49 +0200</time>
      </trkpt>
      <trkpt lat="43.46517" lon="6.88188">
        <ele>179</ele>
        <time>2015-05-07T16:00:55 +0200</time>
      </trkpt>
      <trkpt lat="43.46519" lon="6.88191">
        <ele>181</ele>
        <time>2015-05-07T16:00:56 +0200</time>
      </trkpt>
      <trkpt lat="43.46525" lon="6.8819">
        <ele>184</ele>
        <time>2015-05-07T16:01:02 +0200</time>
      </trkpt>
      <trkpt lat="43.46526" lon="6.88193">
        <ele>184</ele>
        <time>2015-05-07T16:01:04 +0200</time>
      </trkpt>
      <trkpt lat="43.46531" lon="6.88194">
        <ele>185</ele>
        <time>2015-05-07T16:01:09 +0200</time>
      </trkpt>
      <trkpt lat="43.46533" lon="6.88196">
        <ele>185</ele>
        <time>2015-05-07T16:01:10 +0200</time>
      </trkpt>
      <trkpt lat="43.46541" lon="6.88189">
        <ele>187</ele>
        <time>2015-05-07T16:01:18 +0200</time>
      </trkpt>
      <trkpt lat="43.46542" lon="6.88191">
        <ele>189</ele>
        <time>2015-05-07T16:01:22 +0200</time>
      </trkpt>
      <trkpt lat="43.46548" lon="6.88188">
        <ele>192</ele>
        <time>2015-05-07T16:01:27 +0200</time>
      </trkpt>
      <trkpt lat="43.46563" lon="6.88184">
        <ele>191</ele>
        <time>2015-05-07T16:01:44 +0200</time>
      </trkpt>
      <trkpt lat="43.46563" lon="6.88181">
        <ele>192</ele>
        <time>2015-05-07T16:01:46 +0200</time>
      </trkpt>
      <trkpt lat="43.46566" lon="6.8818">
        <ele>193</ele>
        <time>2015-05-07T16:01:54 +0200</time>
      </trkpt>
      <trkpt lat="43.46569" lon="6.88181">
        <ele>196</ele>
        <time>2015-05-07T16:01:57 +0200</time>
      </trkpt>
      <trkpt lat="43.46571" lon="6.8818">
        <ele>197</ele>
        <time>2015-05-07T16:02:00 +0200</time>
      </trkpt>
      <trkpt lat="43.46574" lon="6.88181">
        <ele>197</ele>
        <time>2015-05-07T16:02:01 +0200</time>
      </trkpt>
      <trkpt lat="43.46576" lon="6.88179">
        <ele>196</ele>
        <time>2015-05-07T16:02:05 +0200</time>
      </trkpt>
      <trkpt lat="43.46584" lon="6.88175">
        <ele>196</ele>
        <time>2015-05-07T16:02:15 +0200</time>
      </trkpt>
      <trkpt lat="43.46582" lon="6.88177">
        <ele>194</ele>
        <time>2015-05-07T16:02:24 +0200</time>
      </trkpt>
      <trkpt lat="43.4658" lon="6.88174">
        <ele>196</ele>
        <time>2015-05-07T16:02:34 +0200</time>
      </trkpt>
      <trkpt lat="43.46578" lon="6.88178">
        <ele>197</ele>
        <time>2015-05-07T16:03:29 +0200</time>
      </trkpt>
      <trkpt lat="43.46577" lon="6.8818">
        <ele>202</ele>
        <time>2015-05-07T16:03:32 +0200</time>
      </trkpt>
      <trkpt lat="43.46578" lon="6.88184">
        <ele>206</ele>
        <time>2015-05-07T16:03:39 +0200</time>
      </trkpt>
      <trkpt lat="43.46576" lon="6.88186">
        <ele>206</ele>
        <time>2015-05-07T16:03:41 +0200</time>
      </trkpt>
      <trkpt lat="43.46575" lon="6.8819">
        <ele>206</ele>
        <time>2015-05-07T16:03:42 +0200</time>
      </trkpt>
      <trkpt lat="43.46574" lon="6.88193">
        <ele>208</ele>
        <time>2015-05-07T16:03:44 +0200</time>
      </trkpt>
      <trkpt lat="43.46576" lon="6.88197">
        <ele>208</ele>
        <time>2015-05-07T16:03:47 +0200</time>
      </trkpt>
      <trkpt lat="43.46573" lon="6.88201">
        <ele>208</ele>
        <time>2015-05-07T16:03:51 +0200</time>
      </trkpt>
      <trkpt lat="43.46573" lon="6.88209">
        <ele>208</ele>
        <time>2015-05-07T16:03:58 +0200</time>
      </trkpt>
      <trkpt lat="43.46572" lon="6.88211">
        <ele>209</ele>
        <time>2015-05-07T16:04:01 +0200</time>
      </trkpt>
      <trkpt lat="43.46571" lon="6.88215">
        <ele>209</ele>
        <time>2015-05-07T16:04:03 +0200</time>
      </trkpt>
      <trkpt lat="43.46568" lon="6.8822">
        <ele>209</ele>
        <time>2015-05-07T16:04:08 +0200</time>
      </trkpt>
      <trkpt lat="43.46565" lon="6.88237">
        <ele>208</ele>
        <time>2015-05-07T16:04:22 +0200</time>
      </trkpt>
      <trkpt lat="43.46563" lon="6.88238">
        <ele>210</ele>
        <time>2015-05-07T16:04:24 +0200</time>
      </trkpt>
      <trkpt lat="43.46562" lon="6.8824">
        <ele>211</ele>
        <time>2015-05-07T16:04:28 +0200</time>
      </trkpt>
      <trkpt lat="43.46562" lon="6.88242">
        <ele>212</ele>
        <time>2015-05-07T16:04:37 +0200</time>
      </trkpt>
      <trkpt lat="43.46561" lon="6.88244">
        <ele>211</ele>
        <time>2015-05-07T16:05:05 +0200</time>
      </trkpt>
      <trkpt lat="43.4656" lon="6.88247">
        <ele>212</ele>
        <time>2015-05-07T16:05:10 +0200</time>
      </trkpt>
      <trkpt lat="43.46556" lon="6.88253">
        <ele>214</ele>
        <time>2015-05-07T16:05:16 +0200</time>
      </trkpt>
      <trkpt lat="43.46552" lon="6.88261">
        <ele>219</ele>
        <time>2015-05-07T16:05:23 +0200</time>
      </trkpt>
      <trkpt lat="43.46553" lon="6.88268">
        <ele>220</ele>
        <time>2015-05-07T16:05:27 +0200</time>
      </trkpt>
      <trkpt lat="43.46551" lon="6.88268">
        <ele>220</ele>
        <time>2015-05-07T16:05:29 +0200</time>
      </trkpt>
      <trkpt lat="43.4655" lon="6.88277">
        <ele>221</ele>
        <time>2015-05-07T16:05:36 +0200</time>
      </trkpt>
      <trkpt lat="43.46548" lon="6.88281">
        <ele>223</ele>
        <time>2015-05-07T16:05:39 +0200</time>
      </trkpt>
      <trkpt lat="43.46549" lon="6.88289">
        <ele>224</ele>
        <time>2015-05-07T16:05:44 +0200</time>
      </trkpt>
      <trkpt lat="43.46548" lon="6.88302">
        <ele>226</ele>
        <time>2015-05-07T16:05:53 +0200</time>
      </trkpt>
      <trkpt lat="43.46549" lon="6.88305">
        <ele>226</ele>
        <time>2015-05-07T16:05:55 +0200</time>
      </trkpt>
      <trkpt lat="43.46552" lon="6.88305">
        <ele>226</ele>
        <time>2015-05-07T16:05:56 +0200</time>
      </trkpt>
      <trkpt lat="43.46554" lon="6.8831">
        <ele>225</ele>
        <time>2015-05-07T16:06:00 +0200</time>
      </trkpt>
      <trkpt lat="43.46553" lon="6.88313">
        <ele>225</ele>
        <time>2015-05-07T16:06:01 +0200</time>
      </trkpt>
      <trkpt lat="43.46555" lon="6.88316">
        <ele>224</ele>
        <time>2015-05-07T16:06:03 +0200</time>
      </trkpt>
      <trkpt lat="43.46558" lon="6.88319">
        <ele>225</ele>
        <time>2015-05-07T16:06:51 +0200</time>
      </trkpt>
      <trkpt lat="43.46567" lon="6.88326">
        <ele>226</ele>
        <time>2015-05-07T16:07:00 +0200</time>
      </trkpt>
      <trkpt lat="43.46567" lon="6.88328">
        <ele>226</ele>
        <time>2015-05-07T16:07:02 +0200</time>
      </trkpt>
      <trkpt lat="43.4657" lon="6.88331">
        <ele>226</ele>
        <time>2015-05-07T16:07:05 +0200</time>
      </trkpt>
      <trkpt lat="43.46572" lon="6.88331">
        <ele>226</ele>
        <time>2015-05-07T16:07:06 +0200</time>
      </trkpt>
      <trkpt lat="43.46593" lon="6.88343">
        <ele>228</ele>
        <time>2015-05-07T16:07:32 +0200</time>
      </trkpt>
      <trkpt lat="43.46594" lon="6.88351">
        <ele>231</ele>
        <time>2015-05-07T16:07:38 +0200</time>
      </trkpt>
      <trkpt lat="43.46595" lon="6.88354">
        <ele>234</ele>
        <time>2015-05-07T16:07:41 +0200</time>
      </trkpt>
      <trkpt lat="43.46599" lon="6.88358">
        <ele>234</ele>
        <time>2015-05-07T16:07:43 +0200</time>
      </trkpt>
      <trkpt lat="43.46601" lon="6.88364">
        <ele>234</ele>
        <time>2015-05-07T16:07:50 +0200</time>
      </trkpt>
      <trkpt lat="43.46605" lon="6.88366">
        <ele>234</ele>
        <time>2015-05-07T16:07:53 +0200</time>
      </trkpt>
      <trkpt lat="43.46605" lon="6.88367">
        <ele>234</ele>
        <time>2015-05-07T16:08:00 +0200</time>
      </trkpt>
      <trkpt lat="43.46609" lon="6.8837">
        <ele>234</ele>
        <time>2015-05-07T16:08:06 +0200</time>
      </trkpt>
      <trkpt lat="43.4661" lon="6.88373">
        <ele>234</ele>
        <time>2015-05-07T16:08:10 +0200</time>
      </trkpt>
      <trkpt lat="43.46616" lon="6.88372">
        <ele>234</ele>
        <time>2015-05-07T16:08:11 +0200</time>
      </trkpt>
      <trkpt lat="43.46624" lon="6.88381">
        <ele>237</ele>
        <time>2015-05-07T16:08:20 +0200</time>
      </trkpt>
      <trkpt lat="43.46629" lon="6.88382">
        <ele>237</ele>
        <time>2015-05-07T16:08:23 +0200</time>
      </trkpt>
      <trkpt lat="43.46632" lon="6.88387">
        <ele>237</ele>
        <time>2015-05-07T16:08:28 +0200</time>
      </trkpt>
      <trkpt lat="43.46633" lon="6.88386">
        <ele>238</ele>
        <time>2015-05-07T16:08:35 +0200</time>
      </trkpt>
      <trkpt lat="43.46635" lon="6.88389">
        <ele>236</ele>
        <time>2015-05-07T16:09:28 +0200</time>
      </trkpt>
      <trkpt lat="43.46637" lon="6.88392">
        <ele>238</ele>
        <time>2015-05-07T16:09:34 +0200</time>
      </trkpt>
      <trkpt lat="43.46641" lon="6.88394">
        <ele>237</ele>
        <time>2015-05-07T16:09:37 +0200</time>
      </trkpt>
      <trkpt lat="43.46643" lon="6.88396">
        <ele>237</ele>
        <time>2015-05-07T16:09:39 +0200</time>
      </trkpt>
      <trkpt lat="43.46648" lon="6.88396">
        <ele>238</ele>
        <time>2015-05-07T16:09:43 +0200</time>
      </trkpt>
      <trkpt lat="43.46649" lon="6.884">
        <ele>239</ele>
        <time>2015-05-07T16:09:46 +0200</time>
      </trkpt>
      <trkpt lat="43.46651" lon="6.884">
        <ele>239</ele>
        <time>2015-05-07T16:09:48 +0200</time>
      </trkpt>
      <trkpt lat="43.4668" lon="6.88413">
        <ele>246</ele>
        <time>2015-05-07T16:10:19 +0200</time>
      </trkpt>
      <trkpt lat="43.46682" lon="6.88414">
        <ele>247</ele>
        <time>2015-05-07T16:10:22 +0200</time>
      </trkpt>
      <trkpt lat="43.46688" lon="6.88414">
        <ele>248</ele>
        <time>2015-05-07T16:10:27 +0200</time>
      </trkpt>
      <trkpt lat="43.46688" lon="6.88417">
        <ele>248</ele>
        <time>2015-05-07T16:10:29 +0200</time>
      </trkpt>
      <trkpt lat="43.46691" lon="6.88417">
        <ele>248</ele>
        <time>2015-05-07T16:10:31 +0200</time>
      </trkpt>
      <trkpt lat="43.46693" lon="6.88419">
        <ele>248</ele>
        <time>2015-05-07T16:10:33 +0200</time>
      </trkpt>
      <trkpt lat="43.46717" lon="6.88425">
        <ele>250</ele>
        <time>2015-05-07T16:10:58 +0200</time>
      </trkpt>
      <trkpt lat="43.46718" lon="6.88428">
        <ele>253</ele>
        <time>2015-05-07T16:11:44 +0200</time>
      </trkpt>
      <trkpt lat="43.46723" lon="6.8844">
        <ele>256</ele>
        <time>2015-05-07T16:11:56 +0200</time>
      </trkpt>
      <trkpt lat="43.4673" lon="6.88444">
        <ele>255</ele>
        <time>2015-05-07T16:12:03 +0200</time>
      </trkpt>
      <trkpt lat="43.46731" lon="6.88446">
        <ele>256</ele>
        <time>2015-05-07T16:12:05 +0200</time>
      </trkpt>
      <trkpt lat="43.46744" lon="6.88467">
        <ele>259</ele>
        <time>2015-05-07T16:12:22 +0200</time>
      </trkpt>
      <trkpt lat="43.46746" lon="6.88476">
        <ele>261</ele>
        <time>2015-05-07T16:12:36 +0200</time>
      </trkpt>
      <trkpt lat="43.46747" lon="6.8848">
        <ele>261</ele>
        <time>2015-05-07T16:12:40 +0200</time>
      </trkpt>
      <trkpt lat="43.46749" lon="6.88481">
        <ele>260</ele>
        <time>2015-05-07T16:12:49 +0200</time>
      </trkpt>
      <trkpt lat="43.4675" lon="6.88484">
        <ele>260</ele>
        <time>2015-05-07T16:12:51 +0200</time>
      </trkpt>
      <trkpt lat="43.46753" lon="6.88488">
        <ele>259</ele>
        <time>2015-05-07T16:12:55 +0200</time>
      </trkpt>
      <trkpt lat="43.46753" lon="6.88493">
        <ele>259</ele>
        <time>2015-05-07T16:12:59 +0200</time>
      </trkpt>
      <trkpt lat="43.4675" lon="6.88521">
        <ele>261</ele>
        <time>2015-05-07T16:13:29 +0200</time>
      </trkpt>
      <trkpt lat="43.46751" lon="6.88526">
        <ele>261</ele>
        <time>2015-05-07T16:13:33 +0200</time>
      </trkpt>
      <trkpt lat="43.46749" lon="6.88528">
        <ele>261</ele>
        <time>2015-05-07T16:13:35 +0200</time>
      </trkpt>
      <trkpt lat="43.46749" lon="6.88533">
        <ele>264</ele>
        <time>2015-05-07T16:13:41 +0200</time>
      </trkpt>
      <trkpt lat="43.46747" lon="6.88537">
        <ele>266</ele>
        <time>2015-05-07T16:13:48 +0200</time>
      </trkpt>
      <trkpt lat="43.46747" lon="6.88539">
        <ele>266</ele>
        <time>2015-05-07T16:13:51 +0200</time>
      </trkpt>
      <trkpt lat="43.46748" lon="6.88541">
        <ele>267</ele>
        <time>2015-05-07T16:15:17 +0200</time>
      </trkpt>
      <trkpt lat="43.46748" lon="6.88545">
        <ele>267</ele>
        <time>2015-05-07T16:15:28 +0200</time>
      </trkpt>
      <trkpt lat="43.46748" lon="6.88548">
        <ele>264</ele>
        <time>2015-05-07T16:16:38 +0200</time>
      </trkpt>
      <trkpt lat="43.46747" lon="6.8855">
        <ele>264</ele>
        <time>2015-05-07T16:16:40 +0200</time>
      </trkpt>
      <trkpt lat="43.46745" lon="6.88556">
        <ele>262</ele>
        <time>2015-05-07T16:16:46 +0200</time>
      </trkpt>
      <trkpt lat="43.46739" lon="6.88568">
        <ele>263</ele>
        <time>2015-05-07T16:17:13 +0200</time>
      </trkpt>
      <trkpt lat="43.46725" lon="6.88605">
        <ele>262</ele>
        <time>2015-05-07T16:17:43 +0200</time>
      </trkpt>
      <trkpt lat="43.46725" lon="6.88608">
        <ele>262</ele>
        <time>2015-05-07T16:17:44 +0200</time>
      </trkpt>
      <trkpt lat="43.46723" lon="6.88609">
        <ele>263</ele>
        <time>2015-05-07T16:17:46 +0200</time>
      </trkpt>
      <trkpt lat="43.46721" lon="6.8861">
        <ele>263</ele>
        <time>2015-05-07T16:17:48 +0200</time>
      </trkpt>
      <trkpt lat="43.46719" lon="6.88613">
        <ele>263</ele>
        <time>2015-05-07T16:17:51 +0200</time>
      </trkpt>
      <trkpt lat="43.46717" lon="6.88614">
        <ele>264</ele>
        <time>2015-05-07T16:17:53 +0200</time>
      </trkpt>
      <trkpt lat="43.46713" lon="6.88623">
        <ele>265</ele>
        <time>2015-05-07T16:17:59 +0200</time>
      </trkpt>
      <trkpt lat="43.467" lon="6.88635">
        <ele>266</ele>
        <time>2015-05-07T16:18:13 +0200</time>
      </trkpt>
      <trkpt lat="43.467" lon="6.88639">
        <ele>265</ele>
        <time>2015-05-07T16:18:15 +0200</time>
      </trkpt>
      <trkpt lat="43.46698" lon="6.8864">
        <ele>265</ele>
        <time>2015-05-07T16:18:16 +0200</time>
      </trkpt>
      <trkpt lat="43.46694" lon="6.8864">
        <ele>265</ele>
        <time>2015-05-07T16:18:19 +0200</time>
      </trkpt>
      <trkpt lat="43.46693" lon="6.88643">
        <ele>264</ele>
        <time>2015-05-07T16:18:21 +0200</time>
      </trkpt>
      <trkpt lat="43.46685" lon="6.88645">
        <ele>264</ele>
        <time>2015-05-07T16:18:28 +0200</time>
      </trkpt>
      <trkpt lat="43.46682" lon="6.88648">
        <ele>264</ele>
        <time>2015-05-07T16:18:31 +0200</time>
      </trkpt>
      <trkpt lat="43.4668" lon="6.88647">
        <ele>264</ele>
        <time>2015-05-07T16:18:32 +0200</time>
      </trkpt>
      <trkpt lat="43.46677" lon="6.88648">
        <ele>265</ele>
        <time>2015-05-07T16:18:35 +0200</time>
      </trkpt>
      <trkpt lat="43.46675" lon="6.8865">
        <ele>265</ele>
        <time>2015-05-07T16:18:37 +0200</time>
      </trkpt>
      <trkpt lat="43.4667" lon="6.88658">
        <ele>264</ele>
        <time>2015-05-07T16:18:42 +0200</time>
      </trkpt>
      <trkpt lat="43.46667" lon="6.88658">
        <ele>264</ele>
        <time>2015-05-07T16:18:44 +0200</time>
      </trkpt>
      <trkpt lat="43.46663" lon="6.88664">
        <ele>262</ele>
        <time>2015-05-07T16:18:48 +0200</time>
      </trkpt>
      <trkpt lat="43.46661" lon="6.88665">
        <ele>261</ele>
        <time>2015-05-07T16:18:50 +0200</time>
      </trkpt>
      <trkpt lat="43.46644" lon="6.88683">
        <ele>261</ele>
        <time>2015-05-07T16:19:07 +0200</time>
      </trkpt>
      <trkpt lat="43.46642" lon="6.88682">
        <ele>261</ele>
        <time>2015-05-07T16:19:08 +0200</time>
      </trkpt>
      <trkpt lat="43.46641" lon="6.88683">
        <ele>261</ele>
        <time>2015-05-07T16:19:09 +0200</time>
      </trkpt>
      <trkpt lat="43.46639" lon="6.88685">
        <ele>261</ele>
        <time>2015-05-07T16:19:10 +0200</time>
      </trkpt>
      <trkpt lat="43.46633" lon="6.88688">
        <ele>262</ele>
        <time>2015-05-07T16:19:15 +0200</time>
      </trkpt>
      <trkpt lat="43.46631" lon="6.88691">
        <ele>263</ele>
        <time>2015-05-07T16:19:17 +0200</time>
      </trkpt>
      <trkpt lat="43.46628" lon="6.88699">
        <ele>263</ele>
        <time>2015-05-07T16:19:21 +0200</time>
      </trkpt>
      <trkpt lat="43.4662" lon="6.88708">
        <ele>263</ele>
        <time>2015-05-07T16:19:29 +0200</time>
      </trkpt>
      <trkpt lat="43.46616" lon="6.88723">
        <ele>265</ele>
        <time>2015-05-07T16:19:38 +0200</time>
      </trkpt>
      <trkpt lat="43.46616" lon="6.88727">
        <ele>265</ele>
        <time>2015-05-07T16:19:41 +0200</time>
      </trkpt>
      <trkpt lat="43.46613" lon="6.8873">
        <ele>264</ele>
        <time>2015-05-07T16:19:45 +0200</time>
      </trkpt>
      <trkpt lat="43.46597" lon="6.88773">
        <ele>266</ele>
        <time>2015-05-07T16:20:15 +0200</time>
      </trkpt>
      <trkpt lat="43.46573" lon="6.88819">
        <ele>262</ele>
        <time>2015-05-07T16:20:45 +0200</time>
      </trkpt>
      <trkpt lat="43.4657" lon="6.88821">
        <ele>265</ele>
        <time>2015-05-07T16:20:48 +0200</time>
      </trkpt>
      <trkpt lat="43.46543" lon="6.88861">
        <ele>267</ele>
        <time>2015-05-07T16:21:19 +0200</time>
      </trkpt>
      <trkpt lat="43.46542" lon="6.88864">
        <ele>266</ele>
        <time>2015-05-07T16:21:21 +0200</time>
      </trkpt>
      <trkpt lat="43.46539" lon="6.88865">
        <ele>266</ele>
        <time>2015-05-07T16:21:23 +0200</time>
      </trkpt>
      <trkpt lat="43.46514" lon="6.88904">
        <ele>264</ele>
        <time>2015-05-07T16:21:53 +0200</time>
      </trkpt>
      <trkpt lat="43.46512" lon="6.88908">
        <ele>264</ele>
        <time>2015-05-07T16:21:56 +0200</time>
      </trkpt>
      <trkpt lat="43.4651" lon="6.8891">
        <ele>265</ele>
        <time>2015-05-07T16:21:58 +0200</time>
      </trkpt>
      <trkpt lat="43.46508" lon="6.8891">
        <ele>265</ele>
        <time>2015-05-07T16:22:00 +0200</time>
      </trkpt>
      <trkpt lat="43.46504" lon="6.88914">
        <ele>266</ele>
        <time>2015-05-07T16:22:04 +0200</time>
      </trkpt>
      <trkpt lat="43.46502" lon="6.88917">
        <ele>267</ele>
        <time>2015-05-07T16:22:06 +0200</time>
      </trkpt>
      <trkpt lat="43.46483" lon="6.88966">
        <ele>265</ele>
        <time>2015-05-07T16:22:36 +0200</time>
      </trkpt>
      <trkpt lat="43.46483" lon="6.89018">
        <ele>262</ele>
        <time>2015-05-07T16:23:06 +0200</time>
      </trkpt>
      <trkpt lat="43.46488" lon="6.89068">
        <ele>263</ele>
        <time>2015-05-07T16:23:36 +0200</time>
      </trkpt>
      <trkpt lat="43.46489" lon="6.89086">
        <ele>263</ele>
        <time>2015-05-07T16:23:46 +0200</time>
      </trkpt>
      <trkpt lat="43.46491" lon="6.89089">
        <ele>263</ele>
        <time>2015-05-07T16:23:48 +0200</time>
      </trkpt>
      <trkpt lat="43.46491" lon="6.89092">
        <ele>263</ele>
        <time>2015-05-07T16:23:50 +0200</time>
      </trkpt>
      <trkpt lat="43.46507" lon="6.89142">
        <ele>262</ele>
        <time>2015-05-07T16:24:21 +0200</time>
      </trkpt>
      <trkpt lat="43.46508" lon="6.89145">
        <ele>262</ele>
        <time>2015-05-07T16:24:23 +0200</time>
      </trkpt>
      <trkpt lat="43.4651" lon="6.89149">
        <ele>263</ele>
        <time>2015-05-07T16:24:25 +0200</time>
      </trkpt>
      <trkpt lat="43.46513" lon="6.89161">
        <ele>263</ele>
        <time>2015-05-07T16:24:33 +0200</time>
      </trkpt>
      <trkpt lat="43.46513" lon="6.89164">
        <ele>263</ele>
        <time>2015-05-07T16:24:34 +0200</time>
      </trkpt>
      <trkpt lat="43.46513" lon="6.89166">
        <ele>263</ele>
        <time>2015-05-07T16:24:35 +0200</time>
      </trkpt>
      <trkpt lat="43.46524" lon="6.8922">
        <ele>263</ele>
        <time>2015-05-07T16:25:05 +0200</time>
      </trkpt>
      <trkpt lat="43.46526" lon="6.89224">
        <ele>264</ele>
        <time>2015-05-07T16:25:08 +0200</time>
      </trkpt>
      <trkpt lat="43.46535" lon="6.8928">
        <ele>261</ele>
        <time>2015-05-07T16:25:39 +0200</time>
      </trkpt>
      <trkpt lat="43.46533" lon="6.89287">
        <ele>263</ele>
        <time>2015-05-07T16:25:43 +0200</time>
      </trkpt>
      <trkpt lat="43.46533" lon="6.89289">
        <ele>263</ele>
        <time>2015-05-07T16:25:45 +0200</time>
      </trkpt>
      <trkpt lat="43.46531" lon="6.89293">
        <ele>263</ele>
        <time>2015-05-07T16:25:48 +0200</time>
      </trkpt>
      <trkpt lat="43.4653" lon="6.89302">
        <ele>265</ele>
        <time>2015-05-07T16:25:53 +0200</time>
      </trkpt>
      <trkpt lat="43.46525" lon="6.8931">
        <ele>266</ele>
        <time>2015-05-07T16:25:59 +0200</time>
      </trkpt>
      <trkpt lat="43.46523" lon="6.8932">
        <ele>266</ele>
        <time>2015-05-07T16:26:03 +0200</time>
      </trkpt>
      <trkpt lat="43.46519" lon="6.89325">
        <ele>267</ele>
        <time>2015-05-07T16:26:07 +0200</time>
      </trkpt>
      <trkpt lat="43.46513" lon="6.89347">
        <ele>264</ele>
        <time>2015-05-07T16:26:17 +0200</time>
      </trkpt>
      <trkpt lat="43.46511" lon="6.89348">
        <ele>263</ele>
        <time>2015-05-07T16:26:18 +0200</time>
      </trkpt>
      <trkpt lat="43.46511" lon="6.89352">
        <ele>263</ele>
        <time>2015-05-07T16:26:20 +0200</time>
      </trkpt>
      <trkpt lat="43.46508" lon="6.89363">
        <ele>264</ele>
        <time>2015-05-07T16:26:26 +0200</time>
      </trkpt>
      <trkpt lat="43.46504" lon="6.89365">
        <ele>265</ele>
        <time>2015-05-07T16:26:30 +0200</time>
      </trkpt>
      <trkpt lat="43.46483" lon="6.89406">
        <ele>266</ele>
        <time>2015-05-07T16:26:54 +0200</time>
      </trkpt>
      <trkpt lat="43.46483" lon="6.89411">
        <ele>265</ele>
        <time>2015-05-07T16:26:56 +0200</time>
      </trkpt>
      <trkpt lat="43.46481" lon="6.89413">
        <ele>266</ele>
        <time>2015-05-07T16:26:58 +0200</time>
      </trkpt>
      <trkpt lat="43.46479" lon="6.89413">
        <ele>266</ele>
        <time>2015-05-07T16:27:01 +0200</time>
      </trkpt>
      <trkpt lat="43.46478" lon="6.89415">
        <ele>266</ele>
        <time>2015-05-07T16:27:02 +0200</time>
      </trkpt>
      <trkpt lat="43.46478" lon="6.89418">
        <ele>265</ele>
        <time>2015-05-07T16:27:03 +0200</time>
      </trkpt>
      <trkpt lat="43.46479" lon="6.89484">
        <ele>261</ele>
        <time>2015-05-07T16:27:33 +0200</time>
      </trkpt>
      <trkpt lat="43.4648" lon="6.89488">
        <ele>260</ele>
        <time>2015-05-07T16:27:35 +0200</time>
      </trkpt>
      <trkpt lat="43.46487" lon="6.89528">
        <ele>261</ele>
        <time>2015-05-07T16:27:59 +0200</time>
      </trkpt>
      <trkpt lat="43.4649" lon="6.89532">
        <ele>261</ele>
        <time>2015-05-07T16:28:01 +0200</time>
      </trkpt>
      <trkpt lat="43.46489" lon="6.89533">
        <ele>261</ele>
        <time>2015-05-07T16:28:02 +0200</time>
      </trkpt>
      <trkpt lat="43.46493" lon="6.8955">
        <ele>262</ele>
        <time>2015-05-07T16:28:12 +0200</time>
      </trkpt>
      <trkpt lat="43.46512" lon="6.89602">
        <ele>255</ele>
        <time>2015-05-07T16:28:43 +0200</time>
      </trkpt>
      <trkpt lat="43.46527" lon="6.89657">
        <ele>263</ele>
        <time>2015-05-07T16:29:14 +0200</time>
      </trkpt>
      <trkpt lat="43.46531" lon="6.89674">
        <ele>263</ele>
        <time>2015-05-07T16:29:24 +0200</time>
      </trkpt>
      <trkpt lat="43.46529" lon="6.89678">
        <ele>264</ele>
        <time>2015-05-07T16:29:26 +0200</time>
      </trkpt>
      <trkpt lat="43.46534" lon="6.89702">
        <ele>262</ele>
        <time>2015-05-07T16:29:38 +0200</time>
      </trkpt>
      <trkpt lat="43.46535" lon="6.89703">
        <ele>262</ele>
        <time>2015-05-07T16:29:39 +0200</time>
      </trkpt>
      <trkpt lat="43.46537" lon="6.89715">
        <ele>262</ele>
        <time>2015-05-07T16:29:46 +0200</time>
      </trkpt>
      <trkpt lat="43.46536" lon="6.89719">
        <ele>264</ele>
        <time>2015-05-07T16:29:48 +0200</time>
      </trkpt>
      <trkpt lat="43.4654" lon="6.89736">
        <ele>265</ele>
        <time>2015-05-07T16:29:57 +0200</time>
      </trkpt>
      <trkpt lat="43.46543" lon="6.89738">
        <ele>264</ele>
        <time>2015-05-07T16:29:58 +0200</time>
      </trkpt>
      <trkpt lat="43.46558" lon="6.89768">
        <ele>261</ele>
        <time>2015-05-07T16:30:16 +0200</time>
      </trkpt>
      <trkpt lat="43.46557" lon="6.89769">
        <ele>261</ele>
        <time>2015-05-07T16:30:17 +0200</time>
      </trkpt>
      <trkpt lat="43.46559" lon="6.89772">
        <ele>262</ele>
        <time>2015-05-07T16:30:19 +0200</time>
      </trkpt>
      <trkpt lat="43.46559" lon="6.89774">
        <ele>261</ele>
        <time>2015-05-07T16:30:20 +0200</time>
      </trkpt>
      <trkpt lat="43.46569" lon="6.89799">
        <ele>263</ele>
        <time>2015-05-07T16:30:36 +0200</time>
      </trkpt>
      <trkpt lat="43.46573" lon="6.89802">
        <ele>262</ele>
        <time>2015-05-07T16:30:39 +0200</time>
      </trkpt>
      <trkpt lat="43.46583" lon="6.8982">
        <ele>263</ele>
        <time>2015-05-07T16:30:49 +0200</time>
      </trkpt>
      <trkpt lat="43.46597" lon="6.89876">
        <ele>264</ele>
        <time>2015-05-07T16:31:19 +0200</time>
      </trkpt>
      <trkpt lat="43.46599" lon="6.89887">
        <ele>264</ele>
        <time>2015-05-07T16:31:25 +0200</time>
      </trkpt>
      <trkpt lat="43.46598" lon="6.8989">
        <ele>264</ele>
        <time>2015-05-07T16:31:27 +0200</time>
      </trkpt>
      <trkpt lat="43.46596" lon="6.89948">
        <ele>263</ele>
        <time>2015-05-07T16:31:57 +0200</time>
      </trkpt>
      <trkpt lat="43.46594" lon="6.89989">
        <ele>265</ele>
        <time>2015-05-07T16:32:18 +0200</time>
      </trkpt>
      <trkpt lat="43.46597" lon="6.90018">
        <ele>265</ele>
        <time>2015-05-07T16:32:33 +0200</time>
      </trkpt>
      <trkpt lat="43.466" lon="6.9002">
        <ele>263</ele>
        <time>2015-05-07T16:32:35 +0200</time>
      </trkpt>
      <trkpt lat="43.46601" lon="6.90024">
        <ele>262</ele>
        <time>2015-05-07T16:32:37 +0200</time>
      </trkpt>
      <trkpt lat="43.46605" lon="6.90031">
        <ele>263</ele>
        <time>2015-05-07T16:32:41 +0200</time>
      </trkpt>
      <trkpt lat="43.46625" lon="6.90084">
        <ele>262</ele>
        <time>2015-05-07T16:33:11 +0200</time>
      </trkpt>
      <trkpt lat="43.46646" lon="6.90137">
        <ele>263</ele>
        <time>2015-05-07T16:33:41 +0200</time>
      </trkpt>
      <trkpt lat="43.46647" lon="6.9014">
        <ele>262</ele>
        <time>2015-05-07T16:33:43 +0200</time>
      </trkpt>
      <trkpt lat="43.46662" lon="6.90177">
        <ele>263</ele>
        <time>2015-05-07T16:34:21 +0200</time>
      </trkpt>
      <trkpt lat="43.46663" lon="6.90178">
        <ele>262</ele>
        <time>2015-05-07T16:34:22 +0200</time>
      </trkpt>
      <trkpt lat="43.46663" lon="6.9018">
        <ele>263</ele>
        <time>2015-05-07T16:34:32 +0200</time>
      </trkpt>
      <trkpt lat="43.46662" lon="6.90183">
        <ele>262</ele>
        <time>2015-05-07T16:34:46 +0200</time>
      </trkpt>
      <trkpt lat="43.46661" lon="6.90231">
        <ele>262</ele>
        <time>2015-05-07T16:35:16 +0200</time>
      </trkpt>
      <trkpt lat="43.46661" lon="6.90241">
        <ele>262</ele>
        <time>2015-05-07T16:35:20 +0200</time>
      </trkpt>
      <trkpt lat="43.46662" lon="6.90244">
        <ele>263</ele>
        <time>2015-05-07T16:35:22 +0200</time>
      </trkpt>
      <trkpt lat="43.4666" lon="6.90251">
        <ele>262</ele>
        <time>2015-05-07T16:35:26 +0200</time>
      </trkpt>
      <trkpt lat="43.4666" lon="6.90259">
        <ele>261</ele>
        <time>2015-05-07T16:35:30 +0200</time>
      </trkpt>
      <trkpt lat="43.46655" lon="6.90265">
        <ele>260</ele>
        <time>2015-05-07T16:35:34 +0200</time>
      </trkpt>
      <trkpt lat="43.46642" lon="6.90308">
        <ele>258</ele>
        <time>2015-05-07T16:35:57 +0200</time>
      </trkpt>
      <trkpt lat="43.46643" lon="6.90315">
        <ele>257</ele>
        <time>2015-05-07T16:36:02 +0200</time>
      </trkpt>
      <trkpt lat="43.46645" lon="6.90334">
        <ele>255</ele>
        <time>2015-05-07T16:36:12 +0200</time>
      </trkpt>
      <trkpt lat="43.46651" lon="6.90342">
        <ele>254</ele>
        <time>2015-05-07T16:36:18 +0200</time>
      </trkpt>
      <trkpt lat="43.46658" lon="6.90358">
        <ele>252</ele>
        <time>2015-05-07T16:36:28 +0200</time>
      </trkpt>
      <trkpt lat="43.46658" lon="6.9037">
        <ele>256</ele>
        <time>2015-05-07T16:36:34 +0200</time>
      </trkpt>
      <trkpt lat="43.46661" lon="6.90377">
        <ele>256</ele>
        <time>2015-05-07T16:36:38 +0200</time>
      </trkpt>
      <trkpt lat="43.46661" lon="6.90381">
        <ele>255</ele>
        <time>2015-05-07T16:36:40 +0200</time>
      </trkpt>
      <trkpt lat="43.46664" lon="6.90392">
        <ele>257</ele>
        <time>2015-05-07T16:36:46 +0200</time>
      </trkpt>
      <trkpt lat="43.46664" lon="6.90398">
        <ele>257</ele>
        <time>2015-05-07T16:36:50 +0200</time>
      </trkpt>
      <trkpt lat="43.46667" lon="6.90405">
        <ele>255</ele>
        <time>2015-05-07T16:36:54 +0200</time>
      </trkpt>
      <trkpt lat="43.46666" lon="6.90411">
        <ele>254</ele>
        <time>2015-05-07T16:36:56 +0200</time>
      </trkpt>
      <trkpt lat="43.46671" lon="6.90442">
        <ele>254</ele>
        <time>2015-05-07T16:37:12 +0200</time>
      </trkpt>
      <trkpt lat="43.46673" lon="6.90442">
        <ele>253</ele>
        <time>2015-05-07T16:37:13 +0200</time>
      </trkpt>
      <trkpt lat="43.46698" lon="6.90489">
        <ele>249</ele>
        <time>2015-05-07T16:37:43 +0200</time>
      </trkpt>
      <trkpt lat="43.46724" lon="6.90534">
        <ele>245</ele>
        <time>2015-05-07T16:38:13 +0200</time>
      </trkpt>
      <trkpt lat="43.46726" lon="6.90535">
        <ele>245</ele>
        <time>2015-05-07T16:38:15 +0200</time>
      </trkpt>
      <trkpt lat="43.46735" lon="6.90544">
        <ele>243</ele>
        <time>2015-05-07T16:38:24 +0200</time>
      </trkpt>
      <trkpt lat="43.46737" lon="6.90547">
        <ele>242</ele>
        <time>2015-05-07T16:38:27 +0200</time>
      </trkpt>
      <trkpt lat="43.46737" lon="6.90554">
        <ele>242</ele>
        <time>2015-05-07T16:38:31 +0200</time>
      </trkpt>
      <trkpt lat="43.46736" lon="6.90557">
        <ele>242</ele>
        <time>2015-05-07T16:38:33 +0200</time>
      </trkpt>
      <trkpt lat="43.46734" lon="6.90587">
        <ele>240</ele>
        <time>2015-05-07T16:39:04 +0200</time>
      </trkpt>
      <trkpt lat="43.46741" lon="6.9061">
        <ele>240</ele>
        <time>2015-05-07T16:39:19 +0200</time>
      </trkpt>
      <trkpt lat="43.46744" lon="6.9062">
        <ele>238</ele>
        <time>2015-05-07T16:39:25 +0200</time>
      </trkpt>
      <trkpt lat="43.4673" lon="6.9068">
        <ele>248</ele>
        <time>2015-05-07T16:39:59 +0200</time>
      </trkpt>
      <trkpt lat="43.4674" lon="6.90675">
        <ele>244</ele>
        <time>2015-05-07T16:40:02 +0200</time>
      </trkpt>
      <trkpt lat="43.46719" lon="6.90711">
        <ele>232</ele>
        <time>2015-05-07T16:40:31 +0200</time>
      </trkpt>
      <trkpt lat="43.46716" lon="6.90711">
        <ele>233</ele>
        <time>2015-05-07T16:40:33 +0200</time>
      </trkpt>
      <trkpt lat="43.46707" lon="6.90717">
        <ele>232</ele>
        <time>2015-05-07T16:40:42 +0200</time>
      </trkpt>
      <trkpt lat="43.46705" lon="6.9072">
        <ele>228</ele>
        <time>2015-05-07T16:40:44 +0200</time>
      </trkpt>
      <trkpt lat="43.46699" lon="6.90721">
        <ele>225</ele>
        <time>2015-05-07T16:40:50 +0200</time>
      </trkpt>
      <trkpt lat="43.46671" lon="6.90721">
        <ele>225</ele>
        <time>2015-05-07T16:41:11 +0200</time>
      </trkpt>
      <trkpt lat="43.46668" lon="6.90725">
        <ele>220</ele>
        <time>2015-05-07T16:41:15 +0200</time>
      </trkpt>
      <trkpt lat="43.46663" lon="6.90726">
        <ele>218</ele>
        <time>2015-05-07T16:41:20 +0200</time>
      </trkpt>
      <trkpt lat="43.46662" lon="6.90727">
        <ele>216</ele>
        <time>2015-05-07T16:41:21 +0200</time>
      </trkpt>
      <trkpt lat="43.46659" lon="6.90729">
        <ele>215</ele>
        <time>2015-05-07T16:41:23 +0200</time>
      </trkpt>
      <trkpt lat="43.46657" lon="6.90728">
        <ele>215</ele>
        <time>2015-05-07T16:41:25 +0200</time>
      </trkpt>
      <trkpt lat="43.46655" lon="6.90727">
        <ele>214</ele>
        <time>2015-05-07T16:41:27 +0200</time>
      </trkpt>
      <trkpt lat="43.46647" lon="6.90724">
        <ele>213</ele>
        <time>2015-05-07T16:41:33 +0200</time>
      </trkpt>
      <trkpt lat="43.46645" lon="6.90725">
        <ele>211</ele>
        <time>2015-05-07T16:41:36 +0200</time>
      </trkpt>
      <trkpt lat="43.46642" lon="6.90724">
        <ele>211</ele>
        <time>2015-05-07T16:41:38 +0200</time>
      </trkpt>
      <trkpt lat="43.46639" lon="6.90721">
        <ele>211</ele>
        <time>2015-05-07T16:41:40 +0200</time>
      </trkpt>
      <trkpt lat="43.46637" lon="6.90723">
        <ele>211</ele>
        <time>2015-05-07T16:41:42 +0200</time>
      </trkpt>
      <trkpt lat="43.46636" lon="6.9072">
        <ele>211</ele>
        <time>2015-05-07T16:41:43 +0200</time>
      </trkpt>
      <trkpt lat="43.46625" lon="6.90709">
        <ele>212</ele>
        <time>2015-05-07T16:41:51 +0200</time>
      </trkpt>
      <trkpt lat="43.46622" lon="6.90709">
        <ele>211</ele>
        <time>2015-05-07T16:41:53 +0200</time>
      </trkpt>
      <trkpt lat="43.46614" lon="6.90701">
        <ele>210</ele>
        <time>2015-05-07T16:42:02 +0200</time>
      </trkpt>
      <trkpt lat="43.46612" lon="6.90701">
        <ele>210</ele>
        <time>2015-05-07T16:42:03 +0200</time>
      </trkpt>
      <trkpt lat="43.4661" lon="6.907">
        <ele>209</ele>
        <time>2015-05-07T16:42:05 +0200</time>
      </trkpt>
      <trkpt lat="43.46608" lon="6.90699">
        <ele>209</ele>
        <time>2015-05-07T16:42:06 +0200</time>
      </trkpt>
      <trkpt lat="43.46599" lon="6.907">
        <ele>208</ele>
        <time>2015-05-07T16:42:14 +0200</time>
      </trkpt>
      <trkpt lat="43.46597" lon="6.90697">
        <ele>207</ele>
        <time>2015-05-07T16:42:15 +0200</time>
      </trkpt>
      <trkpt lat="43.46586" lon="6.90691">
        <ele>203</ele>
        <time>2015-05-07T16:42:25 +0200</time>
      </trkpt>
      <trkpt lat="43.46583" lon="6.90692">
        <ele>202</ele>
        <time>2015-05-07T16:42:27 +0200</time>
      </trkpt>
      <trkpt lat="43.46581" lon="6.90691">
        <ele>203</ele>
        <time>2015-05-07T16:42:29 +0200</time>
      </trkpt>
      <trkpt lat="43.46579" lon="6.90694">
        <ele>202</ele>
        <time>2015-05-07T16:42:31 +0200</time>
      </trkpt>
      <trkpt lat="43.46576" lon="6.90693">
        <ele>203</ele>
        <time>2015-05-07T16:42:32 +0200</time>
      </trkpt>
      <trkpt lat="43.46574" lon="6.90694">
        <ele>203</ele>
        <time>2015-05-07T16:42:33 +0200</time>
      </trkpt>
      <trkpt lat="43.46572" lon="6.90693">
        <ele>203</ele>
        <time>2015-05-07T16:42:34 +0200</time>
      </trkpt>
      <trkpt lat="43.46569" lon="6.90693">
        <ele>205</ele>
        <time>2015-05-07T16:42:36 +0200</time>
      </trkpt>
      <trkpt lat="43.46568" lon="6.90695">
        <ele>206</ele>
        <time>2015-05-07T16:42:38 +0200</time>
      </trkpt>
      <trkpt lat="43.4656" lon="6.90691">
        <ele>207</ele>
        <time>2015-05-07T16:42:42 +0200</time>
      </trkpt>
      <trkpt lat="43.46546" lon="6.90694">
        <ele>199</ele>
        <time>2015-05-07T16:42:57 +0200</time>
      </trkpt>
      <trkpt lat="43.46544" lon="6.90693">
        <ele>197</ele>
        <time>2015-05-07T16:42:58 +0200</time>
      </trkpt>
      <trkpt lat="43.46522" lon="6.9069">
        <ele>197</ele>
        <time>2015-05-07T16:43:14 +0200</time>
      </trkpt>
      <trkpt lat="43.46521" lon="6.90694">
        <ele>195</ele>
        <time>2015-05-07T16:43:16 +0200</time>
      </trkpt>
      <trkpt lat="43.46518" lon="6.90693">
        <ele>193</ele>
        <time>2015-05-07T16:43:19 +0200</time>
      </trkpt>
      <trkpt lat="43.46512" lon="6.90693">
        <ele>194</ele>
        <time>2015-05-07T16:43:22 +0200</time>
      </trkpt>
      <trkpt lat="43.46482" lon="6.90706">
        <ele>198</ele>
        <time>2015-05-07T16:43:42 +0200</time>
      </trkpt>
      <trkpt lat="43.4648" lon="6.9071">
        <ele>198</ele>
        <time>2015-05-07T16:43:45 +0200</time>
      </trkpt>
      <trkpt lat="43.4648" lon="6.90713">
        <ele>196</ele>
        <time>2015-05-07T16:43:49 +0200</time>
      </trkpt>
      <trkpt lat="43.46479" lon="6.90716">
        <ele>196</ele>
        <time>2015-05-07T16:43:51 +0200</time>
      </trkpt>
      <trkpt lat="43.46464" lon="6.90769">
        <ele>188</ele>
        <time>2015-05-07T16:44:22 +0200</time>
      </trkpt>
      <trkpt lat="43.46452" lon="6.90822">
        <ele>186</ele>
        <time>2015-05-07T16:44:52 +0200</time>
      </trkpt>
      <trkpt lat="43.46452" lon="6.90825">
        <ele>186</ele>
        <time>2015-05-07T16:44:54 +0200</time>
      </trkpt>
      <trkpt lat="43.4644" lon="6.90872">
        <ele>176</ele>
        <time>2015-05-07T16:45:25 +0200</time>
      </trkpt>
      <trkpt lat="43.46426" lon="6.90906">
        <ele>171</ele>
        <time>2015-05-07T16:45:55 +0200</time>
      </trkpt>
      <trkpt lat="43.46423" lon="6.90921">
        <ele>168</ele>
        <time>2015-05-07T16:46:05 +0200</time>
      </trkpt>
      <trkpt lat="43.46419" lon="6.90926">
        <ele>167</ele>
        <time>2015-05-07T16:46:09 +0200</time>
      </trkpt>
      <trkpt lat="43.46419" lon="6.90927">
        <ele>167</ele>
        <time>2015-05-07T16:46:10 +0200</time>
      </trkpt>
      <trkpt lat="43.46415" lon="6.90932">
        <ele>166</ele>
        <time>2015-05-07T16:46:14 +0200</time>
      </trkpt>
      <trkpt lat="43.46414" lon="6.90932">
        <ele>166</ele>
        <time>2015-05-07T16:46:15 +0200</time>
      </trkpt>
      <trkpt lat="43.46408" lon="6.90935">
        <ele>166</ele>
        <time>2015-05-07T16:46:20 +0200</time>
      </trkpt>
      <trkpt lat="43.4638" lon="6.90921">
        <ele>162</ele>
        <time>2015-05-07T16:46:50 +0200</time>
      </trkpt>
      <trkpt lat="43.46378" lon="6.9092">
        <ele>161</ele>
        <time>2015-05-07T16:46:52 +0200</time>
      </trkpt>
      <trkpt lat="43.46376" lon="6.9092">
        <ele>162</ele>
        <time>2015-05-07T16:47:41 +0200</time>
      </trkpt>
      <trkpt lat="43.46375" lon="6.9092">
        <ele>162</ele>
        <time>2015-05-07T16:47:42 +0200</time>
      </trkpt>
      <trkpt lat="43.46373" lon="6.90919">
        <ele>162</ele>
        <time>2015-05-07T16:47:44 +0200</time>
      </trkpt>
      <trkpt lat="43.46371" lon="6.90918">
        <ele>162</ele>
        <time>2015-05-07T16:47:46 +0200</time>
      </trkpt>
      <trkpt lat="43.4637" lon="6.90918">
        <ele>162</ele>
        <time>2015-05-07T16:47:48 +0200</time>
      </trkpt>
      <trkpt lat="43.46368" lon="6.90916">
        <ele>162</ele>
        <time>2015-05-07T16:47:52 +0200</time>
      </trkpt>
      <trkpt lat="43.4634" lon="6.9091">
        <ele>160</ele>
        <time>2015-05-07T16:48:34 +0200</time>
      </trkpt>
      <trkpt lat="43.46338" lon="6.90911">
        <ele>160</ele>
        <time>2015-05-07T16:48:36 +0200</time>
      </trkpt>
      <trkpt lat="43.46336" lon="6.9091">
        <ele>161</ele>
        <time>2015-05-07T16:48:38 +0200</time>
      </trkpt>
      <trkpt lat="43.46333" lon="6.9091">
        <ele>161</ele>
        <time>2015-05-07T16:48:40 +0200</time>
      </trkpt>
      <trkpt lat="43.46332" lon="6.90908">
        <ele>161</ele>
        <time>2015-05-07T16:48:41 +0200</time>
      </trkpt>
      <trkpt lat="43.46322" lon="6.90899">
        <ele>162</ele>
        <time>2015-05-07T16:48:50 +0200</time>
      </trkpt>
      <trkpt lat="43.46321" lon="6.90897">
        <ele>161</ele>
        <time>2015-05-07T16:48:51 +0200</time>
      </trkpt>
      <trkpt lat="43.4632" lon="6.90896">
        <ele>161</ele>
        <time>2015-05-07T16:48:52 +0200</time>
      </trkpt>
      <trkpt lat="43.46303" lon="6.90845">
        <ele>160</ele>
        <time>2015-05-07T16:49:22 +0200</time>
      </trkpt>
      <trkpt lat="43.4628" lon="6.90801">
        <ele>162</ele>
        <time>2015-05-07T16:49:52 +0200</time>
      </trkpt>
      <trkpt lat="43.46249" lon="6.90765">
        <ele>161</ele>
        <time>2015-05-07T16:50:22 +0200</time>
      </trkpt>
      <trkpt lat="43.46235" lon="6.90748">
        <ele>160</ele>
        <time>2015-05-07T16:50:36 +0200</time>
      </trkpt>
      <trkpt lat="43.46233" lon="6.9075">
        <ele>160</ele>
        <time>2015-05-07T16:50:38 +0200</time>
      </trkpt>
      <trkpt lat="43.46231" lon="6.90747">
        <ele>160</ele>
        <time>2015-05-07T16:50:40 +0200</time>
      </trkpt>
      <trkpt lat="43.46228" lon="6.90745">
        <ele>160</ele>
        <time>2015-05-07T16:50:41 +0200</time>
      </trkpt>
      <trkpt lat="43.46218" lon="6.90735">
        <ele>159</ele>
        <time>2015-05-07T16:50:51 +0200</time>
      </trkpt>
      <trkpt lat="43.46217" lon="6.90735">
        <ele>159</ele>
        <time>2015-05-07T16:50:52 +0200</time>
      </trkpt>
      <trkpt lat="43.46183" lon="6.907">
        <ele>155</ele>
        <time>2015-05-07T16:51:22 +0200</time>
      </trkpt>
    </trkseg>
  </trk>
</gpx>